M I D A S
Marine Information and Data Acquisition System
Tripno 640 of the Zeeleeuw from 2004-02-02 07:23:31 to 2004-02-02 13:50:01
Back to CruiseResearch ActivitiesStationsMapUnderway DataData graphs

EquipmentUnitsComment
TimeDGPSUTC
LatitudeDGPSDM.mWGS84
LongitudeDGPSDM.mWGS84
TemperatureSBE03/SBE38deg celciusITS90
ConductivitySBE21S/mITS90
SalinitySBE21 Practical Salinity Units
ChlorophylAChelsea fluorimeterg/lCalibrated in Aceton
Missing or incorrect values are displayed as -999
Sea surface data collected by the RV Zeeleeuw from 2004-02-02 07:23:31 to 2004-02-02 13:50:01
                                                                                    Next 1000 lines
Time Latitude Longitude Temperature Conductivity Salinity ChlorophylA
2004-02-02 07:23:39 51°13.595 2°56.109 12.447445 0.079282 0.409235 -0.848668
2004-02-02 07:23:43 51°13.595 2°56.109 12.442926 0.079282 0.409235 -0.882377
2004-02-02 07:23:48 51°13.596 2°56.108 12.359583 0.079282 0.409235 -0.848668
2004-02-02 07:23:53 51°13.596 2°56.106 12.402375 0.079282 0.409235 -0.848668
2004-02-02 07:23:58 51°13.597 2°56.103 12.402375 0.079282 0.409235 -0.848668
2004-02-02 07:24:03 51°13.598 2°56.1 12.38917 0.079282 0.409235 -0.848668
2004-02-02 07:24:09 51°13.6 2°56.095 12.412323 0.079282 0.409241 -0.848668
2004-02-02 07:24:14 51°13.601 2°56.09 12.450157 0.079282 0.409241 -0.848668
2004-02-02 07:24:19 51°13.602 2°56.085 12.437051 0.079282 0.409241 -0.814958
2004-02-02 07:24:24 51°13.604 2°56.08 12.4064 0.079282 0.409247 -0.848668
2004-02-02 07:24:29 51°13.606 2°56.074 12.4064 0.079282 0.409247 -0.848668
2004-02-02 07:24:33 51°13.607 2°56.069 10.299554 0.079386 0.412048 -0.848668
2004-02-02 07:24:39 51°13.61 2°56.061 8.656156 0.155311 0.825482 -0.781249
2004-02-02 07:24:44 51°13.612 2°56.055 7.624691 0.456813 2.616298 0.634546
2004-02-02 07:24:49 51°13.614 2°56.048 7.357204 1.411286 9.982063 1.308734
2004-02-02 07:24:53 51°13.616 2°56.042 7.203648 1.594269 12.254243 1.173896
2004-02-02 07:24:59 51°13.618 2°56.033 7.203648 1.594269 12.254243 1.173896
2004-02-02 07:25:04 51°13.62 2°56.026 7.089967 1.715766 14.053772 1.746956
2004-02-02 07:25:09 51°13.622 2°56.018 6.972938 1.855364 15.877353 2.6234
2004-02-02 07:25:13 51°13.624 2°56.012 6.918008 2.144707 19.06956 4.005486
2004-02-02 07:25:19 51°13.626 2°56.002 6.894487 2.228877 20.211804 4.578546
2004-02-02 07:25:24 51°13.628 2°55.995 6.822198 2.260722 20.699202 4.88193
2004-02-02 07:25:29 51°13.631 2°55.987 6.755844 2.309703 21.392144 5.084187
2004-02-02 07:25:34 51°13.633 2°55.979 6.755844 2.309703 21.392144 5.084187
2004-02-02 07:25:39 51°13.635 2°55.971 6.692778 2.332724 21.702424 5.4887
2004-02-02 07:25:44 51°13.637 2°55.962 6.63805 2.325157 21.709142 5.657247
2004-02-02 07:25:49 51°13.64 2°55.954 6.603204 2.29457 21.458515 5.522409
2004-02-02 07:25:53 51°13.642 2°55.948 6.596726 2.287739 21.431825 5.589828
2004-02-02 07:25:59 51°13.645 2°55.937 6.596726 2.287739 21.431825 5.589828
2004-02-02 07:26:04 51°13.647 2°55.929 6.560868 2.264828 21.259674 5.4887
2004-02-02 07:26:09 51°13.649 2°55.919 6.538254 2.266299 21.311778 5.421281
2004-02-02 07:26:13 51°13.651 2°55.912 6.540135 2.259889 21.281772 5.286443
2004-02-02 07:26:19 51°13.654 2°55.901 6.504244 2.25537 21.280633 5.050477
2004-02-02 07:26:25 51°13.657 2°55.889 6.512265 2.247594 21.231156 5.084187
2004-02-02 07:26:29 51°13.659 2°55.882 6.512265 2.247594 21.231156 5.084187
2004-02-02 07:26:33 51°13.661 2°55.874 6.497658 2.233511 21.108012 5.320153
2004-02-02 07:26:39 51°13.664 2°55.862 6.500579 2.250221 21.295562 5.219024
2004-02-02 07:26:44 51°13.666 2°55.852 6.479381 2.253795 21.352068 4.949349
2004-02-02 07:26:49 51°13.668 2°55.842 6.46759 2.254741 21.376133 4.814512
2004-02-02 07:26:53 51°13.67 2°55.835 6.464964 2.263044 21.477157 4.713383
2004-02-02 07:26:59 51°13.672 2°55.823 6.464964 2.263044 21.477157 4.713383
2004-02-02 07:27:04 51°13.674 2°55.813 6.479678 2.281647 21.675833 4.645965
2004-02-02 07:27:09 51°13.676 2°55.803 6.481065 2.284695 21.720972 4.612255
2004-02-02 07:27:15 51°13.678 2°55.792 6.481313 2.290686 21.791428 4.511127
2004-02-02 07:27:19 51°13.679 2°55.785 6.489436 2.301407 21.912344 4.747093
2004-02-02 07:27:24 51°13.68 2°55.778 6.487603 2.297308 21.877207 4.645965
2004-02-02 07:27:28 51°13.681 2°55.773 6.487603 2.297308 21.877207 4.645965
2004-02-02 07:27:33 51°13.682 2°55.77 6.509493 2.312128 22.032336 4.544836
2004-02-02 07:27:39 51°13.682 2°55.767 6.50048 2.337566 22.302374 4.645965
2004-02-02 07:27:43 51°13.683 2°55.767 6.502412 2.359746 22.533194 4.612255
2004-02-02 07:27:49 51°13.683 2°55.768 6.49949 2.372466 22.66576 4.645965
2004-02-02 07:27:53 51°13.685 2°55.77 6.507017 2.380351 22.747757 4.91564
2004-02-02 07:27:59 51°13.687 2°55.773 6.507017 2.380351 22.747757 4.91564
2004-02-02 07:28:03 51°13.689 2°55.776 6.517711 2.410314 23.061235 4.578546
2004-02-02 07:28:09 51°13.694 2°55.78 6.510136 2.41515 23.114263 4.612255
2004-02-02 07:28:13 51°13.697 2°55.782 6.509443 2.408106 23.038649 4.713383
2004-02-02 07:28:19 51°13.704 2°55.784 6.492061 2.386974 22.814305 4.612255
2004-02-02 07:28:23 51°13.709 2°55.784 6.506125 2.346606 22.393541 4.645965
2004-02-02 07:28:28 51°13.716 2°55.782 6.506125 2.346606 22.393541 4.645965
2004-02-02 07:28:33 51°13.723 2°55.778 6.498995 2.297833 21.884314 4.645965
2004-02-02 07:28:37 51°13.728 2°55.774 6.490427 2.254847 21.438716 4.612255
2004-02-02 07:28:44 51°13.737 2°55.763 6.474229 2.172775 20.587703 4.713383
2004-02-02 07:28:48 51°13.742 2°55.757 6.479926 2.097655 19.817517 4.679674
2004-02-02 07:28:53 51°13.748 2°55.749 6.411478 2.064881 19.48008 4.814512
2004-02-02 07:28:59 51°13.755 2°55.739 6.378838 2.033789 19.16246 5.084187
2004-02-02 07:29:03 51°13.759 2°55.732 6.378838 2.033789 19.16246 5.084187
2004-02-02 07:29:08 51°13.765 2°55.723 6.348665 2.012048 18.942291 5.219024
2004-02-02 07:29:13 51°13.771 2°55.714 6.324932 1.992934 18.752075 5.623537
2004-02-02 07:29:19 51°13.779 2°55.702 6.32667 1.935071 18.163576 5.758375
2004-02-02 07:29:23 51°13.785 2°55.694 6.289615 1.817908 16.983817 6.230306
2004-02-02 07:29:28 51°13.793 2°55.684 6.304072 1.695855 15.764498 5.893212
2004-02-02 07:29:33 51°13.801 2°55.675 6.304072 1.695855 15.764498 5.893212
2004-02-02 07:29:37 51°13.807 2°55.667 6.286584 1.580354 14.61592 6.331435
2004-02-02 07:29:43 51°13.815 2°55.655 6.273316 1.473286 13.551293 6.432563
2004-02-02 07:29:49 51°13.825 2°55.644 6.293789 1.3889 12.720577 6.499982
2004-02-02 07:29:53 51°13.831 2°55.637 6.291901 1.346245 12.30229 6.702238
2004-02-02 07:29:59 51°13.841 2°55.626 6.294683 1.294482 11.798443 6.668529
2004-02-02 07:30:03 51°13.848 2°55.62 6.294683 1.294482 11.798443 6.668529
2004-02-02 07:30:08 51°13.857 2°55.612 6.2998 1.273633 11.596742 6.432563
2004-02-02 07:30:13 51°13.867 2°55.604 6.293739 1.280652 11.668238 6.668529
2004-02-02 07:30:18 51°13.877 2°55.597 6.289963 1.306322 11.921228 6.499982
2004-02-02 07:30:23 51°13.887 2°55.59 6.300843 1.335871 12.211262 6.398853
2004-02-02 07:30:28 51°13.897 2°55.583 6.300843 1.335871 12.211262 6.398853
2004-02-02 07:30:33 51°13.907 2°55.575 6.294981 1.374541 12.593266 6.297725
2004-02-02 07:30:39 51°13.919 2°55.566 6.318576 1.404203 12.887625 6.061759
2004-02-02 07:30:43 51°13.927 2°55.56 6.34931 1.440682 13.255191 6.095469
2004-02-02 07:30:48 51°13.937 2°55.553 6.377499 1.4779 13.62689 5.758375
2004-02-02 07:30:53 51°13.947 2°55.546 6.393176 1.530224 14.152126 5.690956
2004-02-02 07:30:57 51°13.956 2°55.541 6.393176 1.530224 14.152126 5.690956
2004-02-02 07:31:03 51°13.968 2°55.532 6.408105 1.616332 15.01884 5.556118
2004-02-02 07:31:08 51°13.979 2°55.525 6.420602 1.726705 16.132047 5.353862
2004-02-02 07:31:13 51°13.989 2°55.518 6.431113 1.837958 17.257412 5.45499
2004-02-02 07:31:19 51°14.001 2°55.509 6.431509 1.981802 18.723391 5.421281
2004-02-02 07:31:23 51°14.009 2°55.503 6.442415 2.094715 19.878924 5.353862
2004-02-02 07:31:28 51°14.019 2°55.496 6.442415 2.094715 19.878924 5.353862
2004-02-02 07:31:33 51°14.03 2°55.488 6.443456 2.183809 20.794887 5.050477
2004-02-02 07:31:37 51°14.038 2°55.483 6.443703 2.250013 21.477933 5.016768
2004-02-02 07:31:44 51°14.053 2°55.472 6.442563 2.285537 21.840638 4.780802
2004-02-02 07:31:48 51°14.062 2°55.466 6.445934 2.314967 22.145441 4.612255
2004-02-02 07:31:53 51°14.072 2°55.458 6.440779 2.329578 22.293564 4.578546
2004-02-02 07:31:59 51°14.085 2°55.449 6.440779 2.329578 22.293564 4.578546
2004-02-02 07:32:03 51°14.093 2°55.443 6.421593 2.33599 22.357445 4.612255
2004-02-02 07:32:09 51°14.105 2°55.434 6.402551 2.346712 22.467645 4.477418
2004-02-02 07:32:13 51°14.114 2°55.428 6.392184 2.368683 22.70104 4.511127
2004-02-02 07:32:17 51°14.121 2°55.423 6.387422 2.384242 22.863933 4.848221
2004-02-02 07:32:24 51°14.135 2°55.412 6.374869 2.380352 22.823056 4.34258
2004-02-02 07:32:29 51°14.144 2°55.405 6.363654 2.348604 22.495891 4.376289
2004-02-02 07:32:33 51°14.151 2°55.399 6.363654 2.348604 22.495891 4.376289
2004-02-02 07:32:39 51°14.162 2°55.391 6.348416 2.302985 22.025987 4.511127
2004-02-02 07:32:43 51°14.169 2°55.385 6.346778 2.254427 21.526726 4.34258
2004-02-02 07:32:48 51°14.177 2°55.377 6.337395 2.199676 20.962251 4.544836
2004-02-02 07:32:53 51°14.185 2°55.369 6.325479 2.15565 20.508054 4.511127
2004-02-02 07:32:59 51°14.194 2°55.36 6.325479 2.15565 20.508054 4.511127
2004-02-02 07:33:03 51°14.2 2°55.353 6.32379 2.112889 20.071416 4.443708
2004-02-02 07:33:08 51°14.208 2°55.345 6.312119 2.088622 19.829622 4.409999
2004-02-02 07:33:13 51°14.216 2°55.336 6.313311 2.081374 19.759899 4.308871
2004-02-02 07:33:19 51°14.224 2°55.326 6.308145 2.089148 19.846957 4.376289
2004-02-02 07:33:23 51°14.229 2°55.32 6.312616 2.100913 19.971075 4.544836
2004-02-02 07:33:28 51°14.236 2°55.311 6.312616 2.100913 19.971075 4.544836
2004-02-02 07:33:33 51°14.242 2°55.303 6.308245 2.107217 20.041044 4.34258
2004-02-02 07:33:39 51°14.25 2°55.292 6.306258 2.105431 20.026492 4.207742
2004-02-02 07:33:43 51°14.254 2°55.285 6.30288 2.09272 19.897438 4.039195
2004-02-02 07:33:48 51°14.26 2°55.276 6.304221 2.070134 19.667457 4.308871
2004-02-02 07:33:53 51°14.265 2°55.266 6.306506 2.043244 19.388694 4.072905
2004-02-02 07:33:59 51°14.273 2°55.253 6.306506 2.043244 19.388694 4.072905
2004-02-02 07:34:03 51°14.278 2°55.244 6.301887 2.01478 19.096467 4.376289
2004-02-02 07:34:09 51°14.286 2°55.23 6.300148 1.99283 18.87004 4.207742
2004-02-02 07:34:13 51°14.291 2°55.221 6.293938 1.971616 18.651952 4.207742
2004-02-02 07:34:17 51°14.296 2°55.212 6.294286 1.959015 18.522893 4.308871
2004-02-02 07:34:23 51°14.304 2°55.197 6.294782 1.949249 18.421756 4.34258
2004-02-02 07:34:28 51°14.31 2°55.184 6.294782 1.949249 18.421756 4.34258
2004-02-02 07:34:33 51°14.317 2°55.171 6.286783 1.938013 18.308749 4.477418
2004-02-02 07:34:39 51°14.324 2°55.155 6.289317 1.922788 18.152443 4.34258
2004-02-02 07:34:43 51°14.328 2°55.143 6.285889 1.902313 17.944097 4.34258
2004-02-02 07:34:49 51°14.335 2°55.127 6.291752 1.88415 17.758798 4.477418
2004-02-02 07:34:53 51°14.34 2°55.115 6.298807 1.863258 17.545678 4.544836
2004-02-02 07:34:59 51°14.347 2°55.098 6.298807 1.863258 17.545678 4.544836
2004-02-02 07:35:03 51°14.352 2°55.087 6.303774 1.837328 17.282048 4.511127
2004-02-02 07:35:09 51°14.36 2°55.07 6.311424 1.818119 17.086664 4.443708
2004-02-02 07:35:13 51°14.365 2°55.059 6.325131 1.814445 17.049928 4.544836
2004-02-02 07:35:19 51°14.373 2°55.044 6.346133 1.82914 17.199055 4.612255
2004-02-02 07:35:23 51°14.379 2°55.034 6.374274 1.854019 17.45268 4.713383
2004-02-02 07:35:29 51°14.389 2°55.019 6.374274 1.854019 17.45268 4.713383
2004-02-02 07:35:33 51°14.395 2°55.01 6.411676 1.88436 17.760954 4.578546
2004-02-02 07:35:39 51°14.405 2°54.996 6.450791 1.914178 18.064759 4.443708
2004-02-02 07:35:43 51°14.412 2°54.988 6.527117 1.953449 18.461818 4.511127
2004-02-02 07:35:48 51°14.421 2°54.98 6.611311 1.997031 18.904936 4.578546
2004-02-02 07:35:53 51°14.429 2°54.972 6.704725 2.07318 19.680861 4.544836
2004-02-02 07:35:59 51°14.44 2°54.963 6.704725 2.07318 19.680861 4.544836
2004-02-02 07:36:03 51°14.446 2°54.959 6.793219 2.150082 20.463931 4.409999
2004-02-02 07:36:08 51°14.455 2°54.953 6.88356 2.231202 21.289494 4.477418
2004-02-02 07:36:13 51°14.464 2°54.948 6.966744 2.324217 22.227975 4.409999
2004-02-02 07:36:17 51°14.471 2°54.944 7.028508 2.424402 23.232116 4.376289
2004-02-02 07:36:24 51°14.484 2°54.938 7.061798 2.507891 24.055702 4.34258
2004-02-02 07:36:29 51°14.493 2°54.933 7.087857 2.586662 24.828252 4.34258
2004-02-02 07:36:33 51°14.501 2°54.93 7.087857 2.586662 24.828252 4.34258
2004-02-02 07:36:39 51°14.512 2°54.926 7.104342 2.658504 25.528549 4.376289
2004-02-02 07:36:43 51°14.52 2°54.923 7.127246 2.725096 26.171565 3.971777
2004-02-02 07:36:48 51°14.529 2°54.919 7.133669 2.792014 26.827847 4.072905
2004-02-02 07:36:53 51°14.539 2°54.916 7.149357 2.850206 27.404199 4.241452
2004-02-02 07:36:59 51°14.551 2°54.912 7.161758 2.90009 27.901323 3.904358
2004-02-02 07:37:03 51°14.559 2°54.91 7.161758 2.90009 27.901323 3.904358
2004-02-02 07:37:09 51°14.571 2°54.906 7.166561 2.939348 28.294014 3.938067
2004-02-02 07:37:13 51°14.579 2°54.903 7.162934 2.98682 28.776964 3.870648
2004-02-02 07:37:19 51°14.59 2°54.899 7.170334 3.016189 29.077501 3.735811
2004-02-02 07:37:23 51°14.598 2°54.896 7.167296 3.054824 29.474836 3.668392
2004-02-02 07:37:29 51°14.61 2°54.89 7.167296 3.054824 29.474836 3.668392
2004-02-02 07:37:33 51°14.617 2°54.887 7.164159 3.081671 29.750342 3.702101
2004-02-02 07:37:37 51°14.624 2°54.882 7.16068 3.105465 29.995607 3.76952
2004-02-02 07:37:43 51°14.635 2°54.875 7.152445 3.126628 30.215837 3.398717
2004-02-02 07:37:48 51°14.643 2°54.868 7.137984 3.144422 30.404625 3.567264
2004-02-02 07:37:53 51°14.652 2°54.861 7.118958 3.158426 30.552982 3.432426
2004-02-02 07:37:59 51°14.662 2°54.853 7.118958 3.158426 30.552982 3.432426
2004-02-02 07:38:03 51°14.668 2°54.847 7.101889 3.167271 30.647671 3.263879
2004-02-02 07:38:08 51°14.676 2°54.84 7.087514 3.174748 30.729987 3.297589
2004-02-02 07:38:13 51°14.684 2°54.832 7.081135 3.168956 30.671698 2.994204
2004-02-02 07:38:19 51°14.694 2°54.822 7.087072 3.152951 30.510018 2.926785
2004-02-02 07:38:23 51°14.701 2°54.816 7.104194 3.128629 30.260108 3.095332
2004-02-02 07:38:28 51°14.709 2°54.806 7.104194 3.128629 30.260108 3.095332
2004-02-02 07:38:33 51°14.719 2°54.797 7.11832 3.0962 29.924427 3.466136
2004-02-02 07:38:39 51°14.732 2°54.785 7.133522 3.067037 29.626052 2.791947
2004-02-02 07:38:43 51°14.741 2°54.777 7.146563 3.051561 29.472427 3.365007
2004-02-02 07:38:48 51°14.752 2°54.767 7.162787 3.057351 29.533505 2.65711
2004-02-02 07:38:53 51°14.765 2°54.756 7.173911 3.089567 29.874726 2.926785
2004-02-02 07:38:59 51°14.78 2°54.742 7.173911 3.089567 29.874726 2.926785
2004-02-02 07:39:03 51°14.791 2°54.733 7.190177 3.12368 30.227844 2.960494
2004-02-02 07:39:08 51°14.804 2°54.72 7.202472 3.162955 30.637331 2.825657
2004-02-02 07:39:13 51°14.818 2°54.707 7.210651 3.196545 30.987045 2.960494
2004-02-02 07:39:17 51°14.83 2°54.696 7.21736 3.228558 31.318601 2.859366
2004-02-02 07:39:23 51°14.847 2°54.678 7.223823 3.261205 31.65954 2.724529
2004-02-02 07:39:28 51°14.863 2°54.664 7.223823 3.261205 31.65954 2.724529
2004-02-02 07:39:33 51°14.878 2°54.648 7.22632 3.294485 32.004493 2.65711
2004-02-02 07:39:38 51°14.894 2°54.633 7.231559 3.323344 32.305197 3.027913
2004-02-02 07:39:43 51°14.91 2°54.617 7.23386 3.343777 32.516029 3.061623
2004-02-02 07:39:49 51°14.929 2°54.598 7.235182 3.368951 32.779714 2.859366
2004-02-02 07:39:53 51°14.941 2°54.585 7.234692 3.385068 32.943318 3.027913
2004-02-02 07:39:59 51°14.96 2°54.567 7.231559 3.394969 33.046253 3.095332
2004-02-02 07:40:03 51°14.973 2°54.554 7.231559 3.394969 33.046253 3.095332
2004-02-02 07:40:08 51°14.989 2°54.539 7.22965 3.405292 33.152151 3.061623
2004-02-02 07:40:13 51°15.005 2°54.523 7.225194 3.412772 33.231372 3.23017
2004-02-02 07:40:18 51°15.022 2°54.507 7.215842 3.419829 33.30281 3.19646
2004-02-02 07:40:24 51°15.042 2°54.488 7.203991 3.426571 33.377342 3.162751
2004-02-02 07:40:28 51°15.054 2°54.475 7.203991 3.426571 33.377342 3.162751
2004-02-02 07:40:33 51°15.071 2°54.459 7.188561 3.428468 33.397852 3.129042
2004-02-02 07:40:39 51°15.09 2°54.439 7.180722 3.432155 33.436107 2.791947
2004-02-02 07:40:43 51°15.102 2°54.426 7.171804 3.434367 33.466566 3.027913
2004-02-02 07:40:48 51°15.118 2°54.41 7.167884 3.434683 33.470801 3.499845
2004-02-02 07:40:53 51°15.134 2°54.393 7.162542 3.436052 33.497054 3.263879
2004-02-02 07:40:59 51°15.154 2°54.374 7.162542 3.436052 33.497054 3.263879
2004-02-02 07:41:03 51°15.167 2°54.36 7.14671 3.437949 33.524942 3.331298
2004-02-02 07:41:08 51°15.183 2°54.344 7.130874 3.43995 33.556441 3.061623
2004-02-02 07:41:13 51°15.2 2°54.329 7.116359 3.441109 33.579648 2.6234
2004-02-02 07:41:17 51°15.213 2°54.316 7.104734 3.440056 33.574787 2.65711
2004-02-02 07:41:24 51°15.236 2°54.294 7.094383 3.438792 33.567641 2.555982
2004-02-02 07:41:28 51°15.25 2°54.282 7.094383 3.438792 33.567641 2.555982
2004-02-02 07:41:33 51°15.266 2°54.265 7.083196 3.441004 33.599831 2.454853
2004-02-02 07:41:39 51°15.286 2°54.246 7.075393 3.443743 33.641863 2.353725
2004-02-02 07:41:43 51°15.299 2°54.233 7.070927 3.446588 33.690015 2.555982
2004-02-02 07:41:48 51°15.315 2°54.217 7.064792 3.448695 33.721137 2.488563
2004-02-02 07:41:53 51°15.331 2°54.202 7.064448 3.451645 33.76639 2.454853
2004-02-02 07:41:57 51°15.344 2°54.188 7.064448 3.451645 33.76639 2.454853
2004-02-02 07:42:04 51°15.367 2°54.166 7.0563 3.45312 33.789858 2.320016
2004-02-02 07:42:08 51°15.381 2°54.153 7.056251 3.454068 33.815062 2.454853
2004-02-02 07:42:13 51°15.397 2°54.137 7.051047 3.455332 33.832952 2.252597
2004-02-02 07:42:19 51°15.417 2°54.118 7.047954 3.456702 33.850336 2.320016
2004-02-02 07:42:23 51°15.43 2°54.105 7.047757 3.456386 33.852702 2.218888
2004-02-02 07:42:28 51°15.447 2°54.09 7.047757 3.456386 33.852702 2.218888
2004-02-02 07:42:33 51°15.463 2°54.074 7.043731 3.457018 33.862898 2.117759
2004-02-02 07:42:39 51°15.483 2°54.055 7.042062 3.457018 33.869536 2.050341
2004-02-02 07:42:43 51°15.496 2°54.042 7.040147 3.459336 33.897255 2.08405
2004-02-02 07:42:49 51°15.515 2°54.023 7.037495 3.459231 33.901924 1.949212
2004-02-02 07:42:53 51°15.528 2°54.011 7.035973 3.45765 33.884719 2.286306
2004-02-02 07:42:59 51°15.548 2°53.992 7.035973 3.45765 33.884719 2.286306
2004-02-02 07:43:04 51°15.565 2°53.976 7.030571 3.458072 33.887646 2.151469
2004-02-02 07:43:09 51°15.581 2°53.96 7.029048 3.457545 33.888556 2.421144
2004-02-02 07:43:13 51°15.595 2°53.947 7.026838 3.458388 33.90272 2.488563
2004-02-02 07:43:19 51°15.614 2°53.928 7.027821 3.458072 33.901772 2.252597
2004-02-02 07:43:23 51°15.627 2°53.915 7.030669 3.457756 33.899992 2.218888
2004-02-02 07:43:29 51°15.647 2°53.896 7.032388 3.458599 33.911667 2.252597
2004-02-02 07:43:33 51°15.66 2°53.884 7.032388 3.458599 33.911667 2.252597
2004-02-02 07:43:39 51°15.68 2°53.865 7.033861 3.458388 33.911866 2.185178
2004-02-02 07:43:43 51°15.693 2°53.852 7.034991 3.458915 33.917605 2.286306
2004-02-02 07:43:48 51°15.709 2°53.837 7.0372 3.458493 33.913846 2.387435
2004-02-02 07:43:53 51°15.726 2°53.821 7.038624 3.457861 33.909455 2.286306
2004-02-02 07:43:59 51°15.746 2°53.802 7.042258 3.457651 33.905496 2.218888
2004-02-02 07:44:03 51°15.759 2°53.79 7.042258 3.457651 33.905496 2.218888
2004-02-02 07:44:08 51°15.776 2°53.775 7.043535 3.457651 33.904665 2.252597
2004-02-02 07:44:13 51°15.793 2°53.759 7.046923 3.458177 33.90874 2.387435
2004-02-02 07:44:19 51°15.812 2°53.741 7.049476 3.45902 33.914593 2.353725
2004-02-02 07:44:23 51°15.825 2°53.728 7.05193 3.459231 33.915225 2.252597
2004-02-02 07:44:28 51°15.842 2°53.712 7.053894 3.459125 33.914909 2.016631
2004-02-02 07:44:33 51°15.859 2°53.698 7.053894 3.459125 33.914909 2.016631
2004-02-02 07:44:39 51°15.879 2°53.679 7.055514 3.458915 33.910119 2.320016
2004-02-02 07:44:43 51°15.893 2°53.667 7.057331 3.460389 33.92452 2.522272
2004-02-02 07:44:47 51°15.906 2°53.655 7.057576 3.4606 33.923487 2.218888
2004-02-02 07:44:53 51°15.926 2°53.637 7.05684 3.461338 33.928191 2.185178
2004-02-02 07:44:59 51°15.946 2°53.618 7.056938 3.461759 33.93278 2.117759
2004-02-02 07:45:03 51°15.959 2°53.606 7.056938 3.461759 33.93278 2.117759
2004-02-02 07:45:09 51°15.978 2°53.587 7.057478 3.462707 33.943106 2.151469
2004-02-02 07:45:13 51°15.991 2°53.575 7.057232 3.462918 33.938745 2.016631
2004-02-02 07:45:19 51°16.011 2°53.556 7.057723 3.46355 33.946459 2.286306
2004-02-02 07:45:24 51°16.026 2°53.54 7.055269 3.463866 33.950733 2.050341
2004-02-02 07:45:28 51°16.039 2°53.527 7.055269 3.463866 33.950733 2.050341
2004-02-02 07:45:33 51°16.056 2°53.51 7.055858 3.46376 33.948754 1.881794
2004-02-02 07:45:39 51°16.075 2°53.491 7.048445 3.464393 33.956469 1.915503
2004-02-02 07:45:44 51°16.091 2°53.476 7.04162 3.464919 33.962205 1.881794
2004-02-02 07:45:48 51°16.105 2°53.463 7.033075 3.465025 33.964185 1.915503
2004-02-02 07:45:53 51°16.121 2°53.448 7.026052 3.465868 33.975029 2.016631
2004-02-02 07:45:59 51°16.141 2°53.43 7.020208 3.466816 33.986189 1.881794
2004-02-02 07:46:03 51°16.155 2°53.417 7.020208 3.466816 33.986189 1.881794
2004-02-02 07:46:09 51°16.174 2°53.399 7.010973 3.468923 34.012475 2.185178
2004-02-02 07:46:13 51°16.188 2°53.386 7.00999 3.471662 34.044821 2.320016
2004-02-02 07:46:19 51°16.207 2°53.368 7.009057 3.474717 34.085635 2.050341
2004-02-02 07:46:23 51°16.22 2°53.355 7.009008 3.477772 34.125636 2.08405
2004-02-02 07:46:28 51°16.236 2°53.34 7.009008 3.477772 34.125636 2.08405
2004-02-02 07:46:33 51°16.253 2°53.325 7.009351 3.479563 34.15103 2.252597
2004-02-02 07:46:39 51°16.272 2°53.306 7.006944 3.481881 34.179665 2.151469
2004-02-02 07:46:43 51°16.285 2°53.295 7.003456 3.48304 34.2007 2.218888
2004-02-02 07:46:48 51°16.301 2°53.279 6.999918 3.483567 34.208967 2.421144
2004-02-02 07:46:53 51°16.318 2°53.264 6.994464 3.484094 34.218916 2.421144
2004-02-02 07:46:59 51°16.337 2°53.245 6.989943 3.44975 33.842683 2.421144
2004-02-02 07:47:03 51°16.35 2°53.233 6.989943 3.44975 33.842683 2.421144
2004-02-02 07:47:08 51°16.366 2°53.217 6.987093 3.483251 34.210557 2.252597
2004-02-02 07:47:13 51°16.383 2°53.202 6.989059 3.483146 34.211087 2.353725
2004-02-02 07:47:19 51°16.402 2°53.183 6.990533 3.48304 34.213297 2.185178
2004-02-02 07:47:23 51°16.415 2°53.171 6.995545 3.482514 34.211747 2.117759
2004-02-02 07:47:28 51°16.432 2°53.155 7.001343 3.482408 34.213958 2.252597
2004-02-02 07:47:33 51°16.448 2°53.14 7.001343 3.482408 34.213958 2.252597
2004-02-02 07:47:38 51°16.464 2°53.124 7.0066 3.480828 34.200904 2.286306
2004-02-02 07:47:43 51°16.48 2°53.109 7.009892 3.480512 34.197453 2.117759
2004-02-02 07:47:48 51°16.496 2°53.094 7.016524 3.478826 34.179048 2.286306
2004-02-02 07:47:53 51°16.513 2°53.078 7.021485 3.478826 34.17653 2.151469
2004-02-02 07:47:57 51°16.525 2°53.066 7.02561 3.477562 34.159372 2.151469
2004-02-02 07:48:04 51°16.548 2°53.044 7.02561 3.477562 34.159372 2.151469
2004-02-02 07:48:08 51°16.561 2°53.032 7.028803 3.47693 34.147441 2.151469
2004-02-02 07:48:13 51°16.577 2°53.017 7.031946 3.476403 34.138339 1.949212
2004-02-02 07:48:19 51°16.596 2°52.999 7.032388 3.476824 34.137071 2.08405
2004-02-02 07:48:23 51°16.61 2°52.987 7.034254 3.476087 34.127349 2.218888
2004-02-02 07:48:29 51°16.629 2°52.969 7.0345 3.476824 34.127855 2.117759
2004-02-02 07:48:33 51°16.641 2°52.957 7.0345 3.476824 34.127855 2.117759
2004-02-02 07:48:37 51°16.654 2°52.944 7.035482 3.476192 34.120123 2.252597
2004-02-02 07:48:43 51°16.674 2°52.926 7.034254 3.477667 34.135373 2.117759
2004-02-02 07:48:48 51°16.69 2°52.91 7.033223 3.47851 34.140377 1.915503
2004-02-02 07:48:53 51°16.706 2°52.895 7.034549 3.477772 34.129822 2.08405
2004-02-02 07:48:59 51°16.725 2°52.876 7.034549 3.477772 34.129822 2.08405
2004-02-02 07:49:03 51°16.739 2°52.864 7.031651 3.478721 34.139325 2.151469
2004-02-02 07:49:08 51°16.755 2°52.849 7.031553 3.479247 34.14507 2.08405
2004-02-02 07:49:13 51°16.771 2°52.835 7.03062 3.476297 34.112064 2.320016
2004-02-02 07:49:19 51°16.791 2°52.817 7.028557 3.48009 34.153423 2.151469
2004-02-02 07:49:23 51°16.804 2°52.806 7.027722 3.479774 34.146626 2.151469
2004-02-02 07:49:28 51°16.82 2°52.792 7.027722 3.479774 34.146626 2.151469
2004-02-02 07:49:33 51°16.836 2°52.778 7.028312 3.480301 34.154883 2.08405
2004-02-02 07:49:38 51°16.852 2°52.764 7.026544 3.480512 34.160533 2.08405
2004-02-02 07:49:43 51°16.869 2°52.749 7.026347 3.481144 34.168266 1.982922
2004-02-02 07:49:48 51°16.885 2°52.734 7.02453 3.48167 34.174012 2.016631
2004-02-02 07:49:53 51°16.902 2°52.719 7.024383 3.482408 34.184573 2.050341
2004-02-02 07:49:57 51°16.915 2°52.708 7.024383 3.482408 34.184573 2.050341
2004-02-02 07:50:03 51°16.935 2°52.69 7.02232 3.482724 34.190537 2.218888
2004-02-02 07:50:08 51°16.951 2°52.675 7.020699 3.482619 34.18771 2.117759
2004-02-02 07:50:13 51°16.968 2°52.661 7.02119 3.483988 34.203491 2.117759
2004-02-02 07:50:19 51°16.988 2°52.643 7.019716 3.484304 34.20694 2.08405
2004-02-02 07:50:23 51°17.002 2°52.631 7.018341 3.484094 34.207159 2.08405
2004-02-02 07:50:28 51°17.019 2°52.617 7.018341 3.484094 34.207159 2.08405
2004-02-02 07:50:33 51°17.036 2°52.602 7.015934 3.484726 34.214896 2.08405
2004-02-02 07:50:39 51°17.055 2°52.585 7.018046 3.484094 34.207998 2.08405
2004-02-02 07:50:43 51°17.069 2°52.575 7.012987 3.485569 34.225773 2.185178
2004-02-02 07:50:48 51°17.085 2°52.561 7.011071 3.485674 34.226922 2.08405
2004-02-02 07:50:53 51°17.102 2°52.549 7.009499 3.483883 34.209897 2.117759
2004-02-02 07:50:59 51°17.123 2°52.533 7.008516 3.484831 34.220245 2.016631
2004-02-02 07:51:03 51°17.137 2°52.523 7.008516 3.484831 34.220245 2.016631
2004-02-02 07:51:08 51°17.154 2°52.511 7.006404 3.484831 34.221925 2.016631
2004-02-02 07:51:13 51°17.172 2°52.499 7.002866 3.484304 34.217856 2.016631
2004-02-02 07:51:19 51°17.194 2°52.485 7.000361 3.485147 34.229575 1.949212
2004-02-02 07:51:24 51°17.212 2°52.475 6.999329 3.484831 34.227806 2.117759
2004-02-02 07:51:28 51°17.227 2°52.466 6.997412 3.484199 34.221746 2.016631
2004-02-02 07:51:33 51°17.245 2°52.457 6.997412 3.484199 34.221746 2.016631
2004-02-02 07:51:38 51°17.263 2°52.448 6.996528 3.485147 34.234618 2.117759
2004-02-02 07:51:43 51°17.282 2°52.44 6.994808 3.484621 34.231389 2.08405
2004-02-02 07:51:48 51°17.3 2°52.432 6.993825 3.485358 34.240281 2.151469
2004-02-02 07:51:53 51°17.319 2°52.424 6.989845 3.485463 34.243954 2.320016
2004-02-02 07:51:59 51°17.342 2°52.414 6.989845 3.485463 34.243954 2.320016
2004-02-02 07:52:03 51°17.357 2°52.408 6.989304 3.484621 34.236433 2.016631
2004-02-02 07:52:08 51°17.375 2°52.4 6.989648 3.484094 34.231522 1.982922
2004-02-02 07:52:13 51°17.394 2°52.393 6.98729 3.484831 34.242939 2.016631
2004-02-02 07:52:19 51°17.417 2°52.386 6.984734 3.486412 34.262722 2.320016
2004-02-02 07:52:23 51°17.433 2°52.381 6.987978 3.487149 34.270777 2.117759
2004-02-02 07:52:29 51°17.455 2°52.375 6.987978 3.487149 34.270777 2.117759
2004-02-02 07:52:33 51°17.471 2°52.37 6.987486 3.486412 34.265248 2.218888
2004-02-02 07:52:37 51°17.486 2°52.366 6.983899 3.485569 34.2552 2.353725
2004-02-02 07:52:44 51°17.513 2°52.358 6.9867 3.487044 34.275521 2.421144
2004-02-02 07:52:48 51°17.528 2°52.355 6.988272 3.487781 34.281892 2.387435
2004-02-02 07:52:53 51°17.547 2°52.35 6.988666 3.487992 34.285879 2.421144
2004-02-02 07:52:59 51°17.571 2°52.347 6.988666 3.487992 34.285879 2.421144
2004-02-02 07:53:03 51°17.586 2°52.342 6.992106 3.48736 34.280658 2.151469
2004-02-02 07:53:08 51°17.606 2°52.34 6.992843 3.489046 34.298232 1.814375
2004-02-02 07:53:13 51°17.625 2°52.337 6.994956 3.488414 34.291325 1.949212
2004-02-02 07:53:19 51°17.648 2°52.332 6.996626 3.488203 34.288181 2.218888
2004-02-02 07:53:23 51°17.663 2°52.33 6.995693 3.489783 34.302918 2.08405
2004-02-02 07:53:28 51°17.683 2°52.326 6.995693 3.489783 34.302918 2.08405
2004-02-02 07:53:33 51°17.702 2°52.324 6.995545 3.489151 34.296012 1.848084
2004-02-02 07:53:39 51°17.725 2°52.32 6.998444 3.489572 34.299773 2.016631
2004-02-02 07:53:44 51°17.745 2°52.315 6.99923 3.489046 34.291491 2.252597
2004-02-02 07:53:49 51°17.764 2°52.314 6.998248 3.489994 34.301849 1.982922
2004-02-02 07:53:53 51°17.779 2°52.309 6.998887 3.490837 34.308528 1.881794
2004-02-02 07:53:59 51°17.803 2°52.307 7.00154 3.492417 34.325791 2.387435
2004-02-02 07:54:03 51°17.818 2°52.302 7.00154 3.492417 34.325791 2.387435
2004-02-02 07:54:09 51°17.842 2°52.298 7.001491 3.489362 34.291574 2.050341
2004-02-02 07:54:13 51°17.857 2°52.295 7.004979 3.487992 34.275773 1.881794
2004-02-02 07:54:19 51°17.88 2°52.29 7.008123 3.492944 34.325643 2.218888
2004-02-02 07:54:24 51°17.9 2°52.288 7.010973 3.492628 34.325563 2.117759
2004-02-02 07:54:29 51°17.919 2°52.284 7.011366 3.494419 34.344285 1.848084
2004-02-02 07:54:33 51°17.934 2°52.282 7.011366 3.494419 34.344285 1.848084
2004-02-02 07:54:39 51°17.957 2°52.278 7.014264 3.494735 34.344363 2.286306
2004-02-02 07:54:43 51°17.973 2°52.276 7.016229 3.495051 34.34866 2.050341
2004-02-02 07:54:48 51°17.992 2°52.274 7.020208 3.489362 34.283995 2.117759
2004-02-02 07:54:53 51°18.012 2°52.273 7.021337 3.491995 34.310231 2.185178
2004-02-02 07:54:59 51°18.035 2°52.272 7.022516 3.49642 34.356027 1.915503
2004-02-02 07:55:03 51°18.051 2°52.272 7.022516 3.49642 34.356027 1.915503
2004-02-02 07:55:09 51°18.074 2°52.272 7.024874 3.496315 34.35319 1.949212
2004-02-02 07:55:13 51°18.09 2°52.276 7.027035 3.489256 34.273586 1.848084
2004-02-02 07:55:19 51°18.113 2°52.281 7.028705 3.498 34.367381 1.949212
2004-02-02 07:55:23 51°18.128 2°52.287 7.030571 3.493365 34.315919 2.050341
2004-02-02 07:55:28 51°18.147 2°52.296 7.031946 3.497368 34.357104 1.746956
2004-02-02 07:55:33 51°18.166 2°52.307 7.031946 3.497368 34.357104 1.746956
2004-02-02 07:55:39 51°18.188 2°52.323 7.03229 3.499897 34.382184 1.746956
2004-02-02 07:55:43 51°18.202 2°52.333 7.035727 3.492733 34.300598 2.016631
2004-02-02 07:55:48 51°18.22 2°52.349 7.035727 3.499686 34.374821 1.881794
2004-02-02 07:55:53 51°18.237 2°52.363 7.036317 3.500634 34.382642 1.780665
2004-02-02 07:55:59 51°18.256 2°52.386 7.040638 3.500845 34.382412 2.016631
2004-02-02 07:56:03 51°18.27 2°52.4 7.040638 3.500845 34.382412 2.016631
2004-02-02 07:56:08 51°18.285 2°52.422 7.040589 3.499791 34.37091 1.645828
2004-02-02 07:56:13 51°18.301 2°52.442 7.044369 3.495893 34.326675 1.713247
2004-02-02 07:56:18 51°18.315 2°52.464 7.04378 3.498948 34.35918 1.713247
2004-02-02 07:56:23 51°18.329 2°52.486 7.046628 3.49937 34.361251 1.645828
2004-02-02 07:56:28 51°18.343 2°52.509 7.046628 3.49937 34.361251 1.645828
2004-02-02 07:56:33 51°18.358 2°52.533 7.043878 3.500002 34.368151 1.645828
2004-02-02 07:56:39 51°18.375 2°52.56 7.046628 3.499791 34.364165 1.679537
2004-02-02 07:56:43 51°18.387 2°52.58 7.043535 3.49958 34.358493 1.612118
2004-02-02 07:56:48 51°18.4 2°52.605 7.045548 3.49052 34.257954 1.713247
2004-02-02 07:56:53 51°18.413 2°52.63 7.046972 3.492522 34.280631 1.713247
2004-02-02 07:56:59 51°18.429 2°52.66 7.046972 3.492522 34.280631 1.713247
2004-02-02 07:57:03 51°18.439 2°52.681 7.04761 3.494207 34.299021 1.848084
2004-02-02 07:57:08 51°18.452 2°52.705 7.04977 3.499475 34.356501 1.713247
2004-02-02 07:57:13 51°18.463 2°52.731 7.05414 3.503479 34.400195 1.679537
2004-02-02 07:57:19 51°18.479 2°52.763 7.05414 3.503268 34.397051 1.780665
2004-02-02 07:57:23 51°18.489 2°52.783 7.05954 3.496525 34.321785 1.814375
2004-02-02 07:57:28 51°18.502 2°52.809 7.05954 3.496525 34.321785 1.814375
2004-02-02 07:57:33 51°18.516 2°52.832 7.057723 3.496736 34.323242 2.185178
2004-02-02 07:57:37 51°18.526 2°52.852 7.057576 3.501688 34.37643 1.645828
2004-02-02 07:57:44 51°18.544 2°52.888 7.060374 3.507482 34.437139 1.814375
2004-02-02 07:57:48 51°18.555 2°52.908 7.060325 3.502636 34.385091 1.881794
2004-02-02 07:57:53 51°18.569 2°52.934 7.062141 3.504637 34.403562 2.08405
2004-02-02 07:57:59 51°18.585 2°52.964 7.064399 3.505059 34.406473 1.746956
2004-02-02 07:58:03 51°18.595 2°52.984 7.064399 3.505059 34.406473 1.746956
2004-02-02 07:58:08 51°18.608 2°53.01 7.066608 3.505796 34.411146 1.713247
2004-02-02 07:58:13 51°18.619 2°53.037 7.071222 3.504321 34.397583 2.050341
2004-02-02 07:58:18 51°18.633 2°53.064 7.070682 3.508957 34.446481 1.915503
2004-02-02 07:58:23 51°18.646 2°53.09 7.070289 3.508219 34.435055 1.949212
2004-02-02 07:58:28 51°18.66 2°53.113 7.070534 3.503057 34.376202 1.780665
2004-02-02 07:58:33 51°18.673 2°53.137 7.070534 3.503057 34.376202 1.780665
2004-02-02 07:58:37 51°18.683 2°53.157 7.072792 3.510537 34.45697 1.713247
2004-02-02 07:58:43 51°18.698 2°53.187 7.073921 3.510116 34.451527 1.915503
2004-02-02 07:58:48 51°18.711 2°53.213 7.072007 3.510537 34.454436 1.780665
2004-02-02 07:58:53 51°18.724 2°53.239 7.071025 3.509273 34.440642 1.949212
2004-02-02 07:58:57 51°18.734 2°53.259 7.072105 3.508851 34.434356 1.679537
2004-02-02 07:59:04 51°18.751 2°53.295 7.072105 3.508851 34.434356 1.679537
2004-02-02 07:59:08 51°18.761 2°53.316 7.068817 3.5098 34.443856 1.713247
2004-02-02 07:59:13 51°18.774 2°53.342 7.068375 3.504005 34.378961 1.848084
2004-02-02 07:59:19 51°18.789 2°53.372 7.06705 3.50706 34.411443 1.780665
2004-02-02 07:59:23 51°18.799 2°53.393 7.069307 3.50843 34.427227 1.780665
2004-02-02 07:59:29 51°18.814 2°53.426 7.069307 3.50843 34.427227 1.780665
2004-02-02 07:59:33 51°18.825 2°53.445 7.069798 3.506534 34.40907 2.117759
2004-02-02 07:59:39 51°18.838 2°53.477 7.067148 3.504321 34.384093 1.645828
2004-02-02 07:59:43 51°18.849 2°53.496 7.067835 3.506534 34.408227 2.117759
2004-02-02 07:59:48 51°18.86 2°53.523 7.069798 3.511064 34.461029 2.016631
2004-02-02 07:59:53 51°18.874 2°53.549 7.063761 3.509273 34.439797 1.881794
2004-02-02 07:59:59 51°18.888 2°53.581 7.065724 3.508325 34.428609 2.117759
2004-02-02 08:00:03 51°18.899 2°53.602 7.065724 3.508325 34.428609 2.117759
2004-02-02 08:00:09 51°18.915 2°53.634 7.062387 3.5098 34.447233 2.050341
2004-02-02 08:00:13 51°18.925 2°53.654 7.062976 3.510116 34.449838 1.915503
2004-02-02 08:00:18 51°18.937 2°53.681 7.060521 3.509378 34.442635 1.881794
2004-02-02 08:00:23 51°18.949 2°53.707 7.061552 3.506639 34.411906 2.252597
2004-02-02 08:00:28 51°18.963 2°53.733 7.061552 3.506639 34.411906 2.252597
2004-02-02 08:00:33 51°18.976 2°53.759 7.058067 3.508325 34.43114 2.320016
2004-02-02 08:00:39 51°18.991 2°53.791 7.054876 3.504953 34.39689 2.151469
2004-02-02 08:00:43 51°19.002 2°53.812 7.057281 3.508114 34.432217 2.117759
2004-02-02 08:00:49 51°19.017 2°53.844 7.057429 3.51138 34.467857 2.218888
2004-02-02 08:00:53 51°19.027 2°53.864 7.057036 3.511064 34.466943 2.286306
2004-02-02 08:00:59 51°19.043 2°53.894 7.057036 3.511064 34.466943 2.286306
2004-02-02 08:01:04 51°19.055 2°53.92 7.056251 3.504532 34.396508 2.151469
2004-02-02 08:01:08 51°19.066 2°53.941 7.05414 3.501371 34.362868 2.218888
2004-02-02 08:01:14 51°19.082 2°53.971 7.055269 3.509905 34.456829 2.454853
2004-02-02 08:01:19 51°19.094 2°53.998 7.051243 3.507587 34.432378 2.387435
2004-02-02 08:01:24 51°19.108 2°54.023 7.051685 3.5098 34.456524 2.421144
2004-02-02 08:01:28 51°19.117 2°54.045 7.051685 3.5098 34.456524 2.421144
2004-02-02 08:01:33 51°19.129 2°54.071 7.051047 3.503057 34.383788 2.454853
2004-02-02 08:01:39 51°19.144 2°54.104 7.049819 3.500318 34.358114 2.353725
2004-02-02 08:01:43 51°19.154 2°54.123 7.05468 3.505375 34.41161 2.6234
2004-02-02 08:01:49 51°19.167 2°54.156 7.049181 3.507061 34.431695 2.421144
2004-02-02 08:01:53 51°19.178 2°54.176 7.046923 3.50822 34.444344 2.421144
2004-02-02 08:01:59 51°19.192 2°54.208 7.051292 3.503057 34.388004 2.454853
2004-02-02 08:02:03 51°19.202 2°54.229 7.051292 3.503057 34.388004 2.454853
2004-02-02 08:02:08 51°19.214 2°54.257 7.048886 3.508746 34.451784 2.454853
2004-02-02 08:02:13 51°19.225 2°54.284 7.045892 3.50822 34.444344 2.555982
2004-02-02 08:02:19 51°19.239 2°54.316 7.047266 3.506534 34.424258 2.791947
2004-02-02 08:02:23 51°19.249 2°54.337 7.045548 3.509589 34.460984 2.724529
2004-02-02 08:02:29 51°19.265 2°54.367 7.043682 3.5098 34.464975 2.387435
2004-02-02 08:02:33 51°19.273 2°54.389 7.043682 3.5098 34.464975 2.387435
2004-02-02 08:02:39 51°19.288 2°54.421 7.046235 3.500634 34.364934 2.555982
2004-02-02 08:02:44 51°19.299 2°54.447 7.044124 3.507166 34.437068 2.454853
2004-02-02 08:02:48 51°19.308 2°54.469 7.044124 3.503689 34.400807 2.454853
2004-02-02 08:02:53 51°19.32 2°54.496 7.04324 3.503057 34.393908 2.421144
2004-02-02 08:02:59 51°19.335 2°54.527 7.04324 3.503057 34.393908 2.421144
2004-02-02 08:03:04 51°19.347 2°54.554 7.041178 3.506745 34.437535 2.421144
2004-02-02 08:03:09 51°19.36 2°54.581 7.044566 3.502425 34.389539 2.454853
2004-02-02 08:03:14 51°19.371 2°54.608 7.042013 3.510327 34.474954 2.454853
2004-02-02 08:03:17 51°19.378 2°54.624 7.045597 3.509695 34.469743 2.724529
2004-02-02 08:03:24 51°19.394 2°54.662 7.045253 3.502741 34.393833 2.454853
2004-02-02 08:03:29 51°19.407 2°54.688 7.04108 3.506639 34.43723 2.555982
2004-02-02 08:03:34 51°19.419 2°54.715 7.04108 3.506639 34.43723 2.555982
2004-02-02 08:03:39 51°19.431 2°54.742 7.041276 3.508957 34.463381 2.65711
2004-02-02 08:03:44 51°19.444 2°54.768 7.037986 3.503163 34.401808 2.522272
2004-02-02 08:03:49 51°19.455 2°54.796 7.039803 3.49937 34.356194 2.286306
2004-02-02 08:03:53 51°19.465 2°54.816 7.040048 3.505902 34.42749 2.589691
2004-02-02 08:03:59 51°19.479 2°54.849 7.040048 3.505902 34.42749 2.589691
2004-02-02 08:04:03 51°19.489 2°54.87 7.041374 3.507377 34.445282 2.724529
2004-02-02 08:04:08 51°19.501 2°54.898 7.039803 3.505691 34.427723 2.488563
2004-02-02 08:04:13 51°19.513 2°54.925 7.039361 3.509168 34.467373 2.555982
2004-02-02 08:04:19 51°19.527 2°54.956 7.042651 3.506113 34.434013 3.027913
2004-02-02 08:04:23 51°19.535 2°54.978 7.040294 3.509589 34.471975 2.758238
2004-02-02 08:04:28 51°19.548 2°55.005 7.040294 3.509589 34.471975 2.758238
2004-02-02 08:04:33 51°19.56 2°55.032 7.037495 3.508009 34.453028 2.791947
2004-02-02 08:04:39 51°19.574 2°55.065 7.040294 3.506218 34.432629 3.095332
2004-02-02 08:04:43 51°19.584 2°55.086 7.040834 3.503689 34.40587 2.488563
2004-02-02 08:04:49 51°19.598 2°55.118 7.041325 3.501372 34.381414 2.589691
2004-02-02 08:04:53 51°19.608 2°55.14 7.041522 3.496104 34.324764 2.690819
2004-02-02 08:04:59 51°19.623 2°55.17 7.039459 3.503373 34.404108 2.6234
2004-02-02 08:05:04 51°19.634 2°55.197 7.039459 3.503373 34.404108 2.6234
2004-02-02 08:05:08 51°19.644 2°55.218 7.040785 3.501055 34.377964 2.6234
2004-02-02 08:05:13 51°19.656 2°55.244 7.035482 3.504216 34.412465 2.589691
2004-02-02 08:05:19 51°19.67 2°55.277 7.035334 3.502109 34.387776 2.825657
2004-02-02 08:05:24 51°19.683 2°55.303 7.032584 3.504743 34.41906 2.555982
2004-02-02 08:05:29 51°19.695 2°55.33 7.028557 3.501898 34.388007 2.893076
2004-02-02 08:05:33 51°19.705 2°55.352 7.028557 3.501898 34.388007 2.893076
2004-02-02 08:05:39 51°19.718 2°55.384 7.030276 3.502636 34.396901 2.589691
2004-02-02 08:05:43 51°19.728 2°55.405 7.027035 3.502109 34.392839 2.522272
2004-02-02 08:05:48 51°19.739 2°55.431 7.027231 3.505375 34.43103 2.724529
2004-02-02 08:05:53 51°19.751 2°55.459 7.024088 3.505691 34.437016 2.6234
2004-02-02 08:05:59 51°19.766 2°55.492 7.023106 3.504006 34.419453 2.6234
2004-02-02 08:06:03 51°19.775 2°55.514 7.023106 3.504006 34.419453 2.6234
2004-02-02 08:06:08 51°19.788 2°55.539 7.021779 3.502847 34.40511 2.926785
2004-02-02 08:06:13 51°19.798 2°55.567 7.017506 3.499159 34.368226 2.65711
2004-02-02 08:06:19 51°19.812 2°55.599 7.019029 3.492627 34.297764 2.926785
2004-02-02 08:06:23 51°19.821 2°55.621 7.018341 3.504006 34.424522 2.65711
2004-02-02 08:06:29 51°19.834 2°55.654 7.015541 3.498 34.360633 2.960494
2004-02-02 08:06:33 51°19.844 2°55.677 7.015541 3.498 34.360633 2.960494
2004-02-02 08:06:39 51°19.86 2°55.707 7.012938 3.492417 34.303041 3.19646
2004-02-02 08:06:43 51°19.868 2°55.729 7.010678 3.497052 34.353653 2.758238
2004-02-02 08:06:48 51°19.88 2°55.756 7.011464 3.493365 34.315077 2.6234
2004-02-02 08:06:53 51°19.892 2°55.784 7.010678 3.503374 34.426068 3.129042
2004-02-02 08:06:59 51°19.906 2°55.816 7.010678 3.503374 34.426068 3.129042
2004-02-02 08:07:04 51°19.917 2°55.843 7.009057 3.501583 34.409038 2.893076
2004-02-02 08:07:09 51°19.928 2°55.87 7.008074 3.500845 34.402672 2.589691
2004-02-02 08:07:13 51°19.938 2°55.891 7.008713 3.501688 34.411879 3.129042
2004-02-02 08:07:19 51°19.953 2°55.922 7.00547 3.498843 34.380806 2.825657
2004-02-02 08:07:23 51°19.962 2°55.944 7.008222 3.498843 34.383339 2.994204
2004-02-02 08:07:28 51°19.974 2°55.972 7.008222 3.498843 34.383339 2.994204
2004-02-02 08:07:33 51°19.987 2°55.999 7.006011 3.501899 34.415871 2.893076
2004-02-02 08:07:37 51°19.997 2°56.02 7.007092 3.490836 34.297576 2.65711
2004-02-02 08:07:43 51°20.01 2°56.053 7.007288 3.502636 34.426464 2.791947
2004-02-02 08:07:49 51°20.024 2°56.085 7.005814 3.498001 34.37582 2.859366
2004-02-02 08:07:53 51°20.033 2°56.108 7.0038 3.501056 34.409198 2.791947
2004-02-02 08:07:57 51°20.042 2°56.13 7.0038 3.501056 34.409198 2.791947
2004-02-02 08:08:04 51°20.06 2°56.168 7.003014 3.494524 34.341218 3.095332
2004-02-02 08:08:09 51°20.071 2°56.195 6.999869 3.492838 34.321964 2.690819
2004-02-02 08:08:13 51°20.08 2°56.217 7.001343 3.502425 34.427543 2.859366
2004-02-02 08:08:19 51°20.094 2°56.251 6.99697 3.49052 34.294966 2.758238
2004-02-02 08:08:24 51°20.107 2°56.277 6.994415 3.494313 34.340604 2.555982
2004-02-02 08:08:29 51°20.118 2°56.304 6.994415 3.494313 34.340604 2.555982
2004-02-02 08:08:33 51°20.128 2°56.325 6.993531 3.50074 34.40997 2.859366
2004-02-02 08:08:39 51°20.142 2°56.358 6.993383 3.497474 34.377664 2.522272
2004-02-02 08:08:43 51°20.152 2°56.381 6.992056 3.497052 34.374748 2.791947
2004-02-02 08:08:48 51°20.165 2°56.409 6.990238 3.499476 34.401226 2.791947
2004-02-02 08:08:53 51°20.177 2°56.437 6.989059 3.490731 34.309062 2.690819
2004-02-02 08:08:59 51°20.191 2°56.469 6.986946 3.494208 34.347889 2.555982
2004-02-02 08:09:03 51°20.2 2°56.49 6.986946 3.494208 34.347889 2.555982
2004-02-02 08:09:08 51°20.212 2°56.518 6.983899 3.498633 34.39793 2.65711
2004-02-02 08:09:13 51°20.224 2°56.545 6.979918 3.49326 34.34006 2.791947
2004-02-02 08:09:19 51°20.238 2°56.578 6.975396 3.502847 34.447376 2.724529
2004-02-02 08:09:23 51°20.248 2°56.6 6.977018 3.497053 34.383194 2.6234
2004-02-02 08:09:29 51°20.262 2°56.634 6.975641 3.49642 34.377975 3.061623
2004-02-02 08:09:33 51°20.271 2°56.655 6.975641 3.49642 34.377975 3.061623
2004-02-02 08:09:39 51°20.284 2°56.689 6.970087 3.495051 34.36554 2.859366
2004-02-02 08:09:43 51°20.294 2°56.711 6.966498 3.500213 34.424505 3.061623
2004-02-02 08:09:48 51°20.306 2°56.739 6.963204 3.490521 34.321094 2.791947
2004-02-02 08:09:53 51°20.317 2°56.767 6.95696 3.493892 34.363008 2.758238
2004-02-02 08:09:59 51°20.331 2°56.8 6.954404 3.485991 34.27496 2.994204
2004-02-02 08:10:03 51°20.339 2°56.822 6.954404 3.485991 34.27496 2.994204
2004-02-02 08:10:09 51°20.352 2°56.856 6.950716 3.496421 34.391496 2.859366
2004-02-02 08:10:13 51°20.362 2°56.878 6.946143 3.486833 34.290912 3.027913
2004-02-02 08:10:19 51°20.375 2°56.911 6.937389 3.498844 34.425607 3.162751
2004-02-02 08:10:23 51°20.384 2°56.934 6.93311 3.49916 34.434991 2.926785
2004-02-02 08:10:29 51°20.398 2°56.967 6.93311 3.49916 34.434991 2.926785
2004-02-02 08:10:33 51°20.407 2°56.989 6.934143 3.493155 34.370153 2.724529
2004-02-02 08:10:39 51°20.42 2°57.023 6.928634 3.492944 34.37123 3.129042
2004-02-02 08:10:44 51°20.43 2°57.052 6.931487 3.49463 34.396436 2.690819
2004-02-02 08:10:48 51°20.439 2°57.075 6.929814 3.494841 34.402973 3.129042
2004-02-02 08:10:53 51°20.449 2°57.104 6.929667 3.499582 34.457397 3.129042
2004-02-02 08:10:59 51°20.462 2°57.138 6.928831 3.499055 34.457567 2.724529
2004-02-02 08:11:03 51°20.47 2°57.162 6.928831 3.499055 34.457567 2.724529
2004-02-02 08:11:09 51°20.481 2°57.197 6.931437 3.484832 34.303612 2.893076
2004-02-02 08:11:13 51°20.49 2°57.22 6.930011 3.496842 34.436739 3.19646
2004-02-02 08:11:19 51°20.5 2°57.256 6.92947 3.497053 34.440741 3.129042
2004-02-02 08:11:23 51°20.508 2°57.279 6.928191 3.493998 34.407296 3.095332
2004-02-02 08:11:28 51°20.517 2°57.309 6.928191 3.493998 34.407296 3.095332
2004-02-02 08:11:33 51°20.526 2°57.339 6.92706 3.490521 34.369244 2.926785
2004-02-02 08:11:39 51°20.537 2°57.375 6.927847 3.495368 34.421441 3.263879
2004-02-02 08:11:43 51°20.544 2°57.399 6.924354 3.487887 34.341266 3.19646
2004-02-02 08:11:48 51°20.553 2°57.428 6.926568 3.497896 34.449968 3.263879
2004-02-02 08:11:53 51°20.562 2°57.457 6.924207 3.49168 34.382773 3.331298
2004-02-02 08:11:59 51°20.573 2°57.492 6.924207 3.49168 34.382773 3.331298
2004-02-02 08:12:03 51°20.58 2°57.516 6.923419 3.490943 34.373856 3.23017
2004-02-02 08:12:08 51°20.59 2°57.545 6.919435 3.483147 34.293612 3.23017
2004-02-02 08:12:13 51°20.598 2°57.575 6.916434 3.496948 34.444675 3.061623
2004-02-02 08:12:19 51°20.61 2°57.611 6.913334 3.498423 34.461673 2.994204
2004-02-02 08:12:24 51°20.62 2°57.64 6.910628 3.483989 34.304523 2.926785
2004-02-02 08:12:29 51°20.629 2°57.669 6.905806 3.486729 34.333655 3.19646
2004-02-02 08:12:33 51°20.638 2°57.692 6.905806 3.486729 34.333655 3.19646
2004-02-02 08:12:39 51°20.649 2°57.727 6.903149 3.496421 34.443147 3.095332
2004-02-02 08:12:44 51°20.658 2°57.756 6.897932 3.485148 34.322275 3.095332
2004-02-02 08:12:49 51°20.668 2°57.786 6.897096 3.481777 34.286223 3.095332
2004-02-02 08:12:53 51°20.675 2°57.81 6.891091 3.481356 34.284988 3.19646
2004-02-02 08:12:59 51°20.687 2°57.845 6.895324 3.482725 34.305892 3.129042
2004-02-02 08:13:03 51°20.693 2°57.868 6.895324 3.482725 34.305892 3.129042
2004-02-02 08:13:08 51°20.703 2°57.897 6.895127 3.498528 34.481504 3.263879
2004-02-02 08:13:13 51°20.713 2°57.927 6.889762 3.487888 34.367491 3.331298
2004-02-02 08:13:19 51°20.725 2°57.963 6.887744 3.497054 34.472138 3.331298
2004-02-02 08:13:24 51°20.734 2°57.992 6.886957 3.49463 34.448134 3.297589
2004-02-02 08:13:29 51°20.744 2°58.022 6.885529 3.495263 34.45591 3.499845
2004-02-02 08:13:33 51°20.752 2°58.046 6.885529 3.495263 34.45591 3.499845
2004-02-02 08:13:39 51°20.763 2°58.081 6.887252 3.495579 34.460222 3.263879
2004-02-02 08:13:44 51°20.773 2°58.109 6.888433 3.495263 34.458457 3.533554
2004-02-02 08:13:48 51°20.783 2°58.131 6.88863 3.496 34.470787 3.398717
2004-02-02 08:13:53 51°20.796 2°58.157 6.88233 3.488309 34.387355 3.533554
2004-02-02 08:13:59 51°20.814 2°58.185 6.883413 3.492839 34.436148 3.634683
2004-02-02 08:14:04 51°20.829 2°58.205 6.883413 3.492839 34.436148 3.634683
2004-02-02 08:14:09 51°20.845 2°58.226 6.883364 3.493261 34.441615 3.398717
2004-02-02 08:14:13 51°20.859 2°58.24 6.883954 3.488625 34.394209 3.76952
2004-02-02 08:14:19 51°20.879 2°58.26 6.885037 3.492418 34.436622 3.702101
2004-02-02 08:14:23 51°20.892 2°58.275 6.887547 3.484727 34.353192 3.600973
2004-02-02 08:14:29 51°20.913 2°58.293 6.887547 3.484727 34.353192 3.600973
2004-02-02 08:14:34 51°20.931 2°58.311 6.886661 3.486834 34.377127 3.668392
2004-02-02 08:14:39 51°20.949 2°58.324 6.890501 3.486834 34.377974 3.735811
2004-02-02 08:14:44 51°20.967 2°58.34 6.888729 3.496632 34.484515 3.80323
2004-02-02 08:14:48 51°20.982 2°58.352 6.89055 3.489468 34.405141 3.702101
2004-02-02 08:14:53 51°21 2°58.365 6.891042 3.496106 34.47704 3.567264
2004-02-02 08:14:59 51°21.021 2°58.384 6.89242 3.484833 34.351806 4.005486
2004-02-02 08:15:03 51°21.036 2°58.395 6.89242 3.484833 34.351806 4.005486
2004-02-02 08:15:09 51°21.057 2°58.413 6.897046 3.48852 34.393903 3.432426
2004-02-02 08:15:13 51°21.071 2°58.426 6.896948 3.493156 34.443007 3.600973
2004-02-02 08:15:19 51°21.093 2°58.442 6.910628 3.481461 34.314028 3.938067
2004-02-02 08:15:23 51°21.107 2°58.455 6.894635 3.483884 34.338879 3.634683
2004-02-02 08:15:28 51°21.125 2°58.471 6.894635 3.483884 34.338879 3.634683
2004-02-02 08:15:33 51°21.143 2°58.484 6.895619 3.482831 34.323954 3.668392
2004-02-02 08:15:39 51°21.164 2°58.502 6.895324 3.487677 34.374499 3.600973
2004-02-02 08:15:43 51°21.179 2°58.515 6.893503 3.496 34.463991 3.466136
2004-02-02 08:15:49 51°21.2 2°58.533 6.893011 3.495263 34.453363 3.735811
2004-02-02 08:15:53 51°21.215 2°58.544 6.897243 3.492102 34.422127 3.702101
2004-02-02 08:15:57 51°21.229 2°58.556 6.897243 3.492102 34.422127 3.702101
2004-02-02 08:16:03 51°21.251 2°58.573 6.896456 3.497896 34.483923 3.668392
2004-02-02 08:16:09 51°21.271 2°58.594 6.89557 3.498107 34.487932 3.567264
2004-02-02 08:16:13 51°21.285 2°58.606 6.900934 3.491364 34.414047 4.443708
2004-02-02 08:16:19 51°21.306 2°58.628 6.904625 3.492207 34.425827 3.466136
2004-02-02 08:16:23 51°21.32 2°58.641 6.904034 3.489363 34.395508 3.499845
2004-02-02 08:16:29 51°21.34 2°58.664 6.910628 3.498845 34.495164 3.297589
2004-02-02 08:16:33 51°21.353 2°58.68 6.910628 3.498845 34.495164 3.297589
2004-02-02 08:16:39 51°21.372 2°58.706 6.91171 3.499055 34.499174 3.600973
2004-02-02 08:16:44 51°21.387 2°58.728 6.911563 3.495684 34.460528 3.297589
2004-02-02 08:16:49 51°21.402 2°58.752 6.91914 3.498212 34.484837 3.735811
2004-02-02 08:16:53 51°21.414 2°58.77 6.923223 3.497896 34.479675 3.668392
2004-02-02 08:16:59 51°21.429 2°58.801 6.927158 3.496737 34.46358 3.634683
2004-02-02 08:17:03 51°21.441 2°58.82 6.927158 3.496737 34.46358 3.634683
2004-02-02 08:17:08 51°21.454 2°58.845 6.927748 3.498423 34.477802 3.398717
2004-02-02 08:17:13 51°21.466 2°58.87 6.927994 3.502743 34.523427 3.567264
2004-02-02 08:17:19 51°21.483 2°58.9 6.927896 3.501794 34.508788 3.297589
2004-02-02 08:17:23 51°21.493 2°58.921 6.930306 3.50053 34.491541 2.6234
2004-02-02 08:17:28 51°21.504 2°58.95 6.936208 3.501057 34.495612 3.263879
2004-02-02 08:17:33 51°21.515 2°58.978 6.936208 3.501057 34.495612 3.263879
2004-02-02 08:17:39 51°21.526 2°59.014 6.937733 3.500109 34.483528 2.994204
2004-02-02 08:17:43 51°21.533 2°59.037 6.938864 3.499266 34.471751 2.994204
2004-02-02 08:17:49 51°21.543 2°59.073 6.944963 3.499476 34.474907 3.027913
2004-02-02 08:17:53 51°21.551 2°59.097 6.941668 3.496948 34.443827 2.690819
2004-02-02 08:17:59 51°21.561 2°59.134 6.941668 3.496948 34.443827 2.690819
2004-02-02 08:18:03 51°21.569 2°59.157 6.94211 3.499792 34.471579 3.129042
2004-02-02 08:18:09 51°21.579 2°59.192 6.943733 3.501583 34.486945 2.522272
2004-02-02 08:18:13 51°21.585 2°59.216 6.943143 3.503164 34.50255 2.6234
2004-02-02 08:18:19 51°21.596 2°59.253 6.944126 3.500214 34.469405 2.825657
2004-02-02 08:18:23 51°21.603 2°59.277 6.945749 3.499687 34.460246 2.791947
2004-02-02 08:18:28 51°21.612 2°59.305 6.945602 3.499687 34.461942 2.555982
2004-02-02 08:18:33 51°21.621 2°59.335 6.945602 3.499687 34.461942 2.555982
2004-02-02 08:18:39 51°21.634 2°59.37 6.947864 3.49916 34.455328 2.758238
2004-02-02 08:18:43 51°21.641 2°59.394 6.946634 3.501373 34.477849 2.65711
2004-02-02 08:18:48 51°21.65 2°59.423 6.947421 3.497685 34.439184 2.724529
2004-02-02 08:18:53 51°21.658 2°59.452 6.949831 3.499792 34.461399 2.758238
2004-02-02 08:18:59 51°21.667 2°59.489 6.949831 3.499792 34.461399 2.758238
2004-02-02 08:19:03 51°21.673 2°59.514 6.951158 3.499898 34.460856 2.758238
2004-02-02 08:19:08 51°21.681 2°59.545 6.954305 3.502637 34.49084 2.6234
2004-02-02 08:19:13 51°21.688 2°59.576 6.955682 3.500846 34.472083 2.65711
2004-02-02 08:19:19 51°21.696 2°59.613 6.954256 3.503585 34.499522 2.791947
2004-02-02 08:19:23 51°21.702 2°59.639 6.952683 3.501899 34.48107 2.522272
2004-02-02 08:19:28 51°21.708 2°59.671 6.952683 3.501899 34.48107 2.522272
2004-02-02 08:19:33 51°21.716 2°59.701 6.954895 3.499792 34.45716 2.724529
2004-02-02 08:19:39 51°21.725 2°59.738 6.953519 3.504006 34.499042 2.454853
2004-02-02 08:19:43 51°21.731 2°59.762 6.952289 3.502742 34.484356 2.690819
2004-02-02 08:19:48 51°21.739 2°59.794 6.954895 3.504217 34.496256 2.589691
2004-02-02 08:19:53 51°21.747 2°59.825 6.954453 3.501373 34.468519 2.454853
2004-02-02 08:19:59 51°21.756 2°59.862 6.958091 3.503269 34.489273 2.724529
2004-02-02 08:20:04 51°21.763 2°59.894 6.958091 3.503269 34.489273 2.724529
2004-02-02 08:20:08 51°21.769 2°59.918 6.957059 3.50506 34.508876 2.488563
2004-02-02 08:20:13 51°21.776 2°59.949 6.956223 3.498739 34.438851 2.825657
2004-02-02 08:20:19 51°21.785 2°59.987 6.957845 3.499898 34.451531 2.522272
2004-02-02 08:20:24 51°21.791 3°0.018 6.960353 3.503269 34.489273 2.65711
2004-02-02 08:20:28 51°21.797 3°0.042 6.960746 3.501689 34.47113 2.488563
2004-02-02 08:20:33 51°21.803 3°0.074 6.960746 3.501689 34.47113 2.488563
2004-02-02 08:20:39 51°21.811 3°0.113 6.96581 3.505376 34.509788 2.724529
2004-02-02 08:20:43 51°21.815 3°0.14 6.964974 3.507272 34.531394 2.724529
2004-02-02 08:20:48 51°21.821 3°0.172 6.96463 3.507483 34.532001 2.65711
2004-02-02 08:20:53 51°21.825 3°0.205 6.969153 3.50664 34.522776 2.893076
2004-02-02 08:20:59 51°21.831 3°0.243 6.969399 3.506746 34.522231 2.65711
2004-02-02 08:21:04 51°21.834 3°0.276 6.969399 3.506746 34.522231 2.65711
2004-02-02 08:21:08 51°21.838 3°0.304 6.971611 3.507378 34.524903 2.6234
2004-02-02 08:21:13 51°21.843 3°0.338 6.972496 3.508221 34.534976 2.859366
2004-02-02 08:21:19 51°21.848 3°0.377 6.973036 3.507588 34.524662 2.589691
2004-02-02 08:21:23 51°21.851 3°0.403 6.975396 3.507483 34.520962 2.758238
2004-02-02 08:21:29 51°21.856 3°0.442 6.974658 3.507799 34.524421 2.555982
2004-02-02 08:21:33 51°21.859 3°0.469 6.974658 3.507799 34.524421 2.555982
2004-02-02 08:21:39 51°21.864 3°0.51 6.976035 3.505481 34.497364 2.758238
2004-02-02 08:21:43 51°21.867 3°0.537 6.976526 3.504533 34.484447 2.994204
2004-02-02 08:21:48 51°21.872 3°0.57 6.973233 3.504322 34.480447 2.893076
2004-02-02 08:21:53 51°21.877 3°0.602 6.973872 3.507588 34.516174 2.859366
2004-02-02 08:21:59 51°21.882 3°0.641 6.974855 3.506745 34.506105 2.589691
2004-02-02 08:22:04 51°21.887 3°0.675 6.974855 3.506745 34.506105 2.589691
2004-02-02 08:22:09 51°21.891 3°0.709 6.976379 3.507904 34.517934 2.791947
2004-02-02 08:22:13 51°21.896 3°0.736 6.976526 3.506956 34.509258 3.095332
2004-02-02 08:22:19 51°21.903 3°0.774 6.975396 3.502004 34.455942 2.6234
2004-02-02 08:22:23 51°21.906 3°0.8 6.975887 3.509274 34.536314 2.758238
2004-02-02 08:22:28 51°21.91 3°0.832 6.975887 3.509274 34.536314 2.758238
2004-02-02 08:22:33 51°21.914 3°0.867 6.975494 3.508537 34.527396 2.522272
2004-02-02 08:22:39 51°21.919 3°0.908 6.97456 3.510011 34.541836 2.893076
2004-02-02 08:22:44 51°21.923 3°0.941 6.974904 3.510538 34.548448 2.690819
2004-02-02 08:22:48 51°21.926 3°0.968 6.977116 3.510433 34.545597 2.589691
2004-02-02 08:22:53 51°21.93 3°1.001 6.975789 3.505586 34.491732 2.555982
2004-02-02 08:22:59 51°21.935 3°1.041 6.975789 3.505586 34.491732 2.555982
2004-02-02 08:23:03 51°21.939 3°1.068 6.97864 3.507799 34.515933 2.65711
2004-02-02 08:23:09 51°21.944 3°1.107 6.978001 3.51096 34.550511 2.488563
2004-02-02 08:23:13 51°21.948 3°1.133 6.975887 3.510117 34.542139 3.095332
2004-02-02 08:23:19 51°21.955 3°1.172 6.975346 3.504744 34.481665 2.6234
2004-02-02 08:23:24 51°21.963 3°1.204 6.973135 3.508958 34.528611 2.65711
2004-02-02 08:23:28 51°21.97 3°1.23 6.973135 3.508958 34.528611 2.65711
2004-02-02 08:23:33 51°21.979 3°1.26 6.972594 3.510117 34.537894 2.690819
2004-02-02 08:23:37 51°21.987 3°1.283 6.972348 3.510117 34.539592 2.488563
2004-02-02 08:23:43 51°21.999 3°1.319 6.974511 3.50822 34.521392 2.6234
2004-02-02 08:23:48 51°22.011 3°1.347 6.974068 3.506113 34.497494 2.758238
2004-02-02 08:23:53 51°22.021 3°1.375 6.974658 3.508537 34.527396 2.960494
2004-02-02 08:23:59 51°22.035 3°1.407 6.974806 3.506956 34.510955 2.65711
2004-02-02 08:24:03 51°22.044 3°1.43 6.974806 3.506956 34.510955 2.65711
2004-02-02 08:24:08 51°22.056 3°1.459 6.978345 3.510117 34.545536 2.65711
2004-02-02 08:24:13 51°22.069 3°1.486 6.97515 3.503901 34.47838 2.791947
2004-02-02 08:24:19 51°22.081 3°1.519 6.977755 3.503374 34.470923 2.758238
2004-02-02 08:24:23 51°22.091 3°1.54 6.980802 3.509695 34.537528 2.960494
2004-02-02 08:24:29 51°22.105 3°1.573 6.982916 3.510538 34.547599 3.162751
2004-02-02 08:24:33 51°22.116 3°1.593 6.982916 3.510538 34.547599 3.162751
2004-02-02 08:24:39 51°22.131 3°1.623 6.982866 3.507167 34.509867 2.758238
2004-02-02 08:24:43 51°22.142 3°1.642 6.983899 3.507799 34.51763 3.061623
2004-02-02 08:24:48 51°22.157 3°1.665 6.984243 3.507483 34.510779 3.19646
2004-02-02 08:24:53 51°22.172 3°1.688 6.98729 3.505586 34.489188 2.758238
2004-02-02 08:24:59 51°22.188 3°1.717 6.991074 3.510222 34.537348 3.162751
2004-02-02 08:25:04 51°22.203 3°1.74 6.991074 3.510222 34.537348 3.162751
2004-02-02 08:25:09 51°22.218 3°1.763 6.990533 3.510749 34.542262 2.859366
2004-02-02 08:25:13 51°22.23 3°1.781 6.996037 3.510117 34.535347 3.23017
2004-02-02 08:25:19 51°22.249 3°1.807 6.993825 3.510644 34.539411 3.331298
2004-02-02 08:25:23 51°22.261 3°1.826 6.997167 3.511065 34.543172 3.263879
2004-02-02 08:25:29 51°22.28 3°1.851 6.997167 3.511065 34.543172 3.263879
2004-02-02 08:25:33 51°22.291 3°1.871 7.000066 3.506851 34.494537 3.061623
2004-02-02 08:25:39 51°22.311 3°1.896 7.004488 3.509274 34.517644 3.466136
2004-02-02 08:25:44 51°22.327 3°1.917 7.003063 3.512435 34.554757 3.061623
2004-02-02 08:25:48 51°22.338 3°1.936 7.005667 3.503585 34.452899 2.960494
2004-02-02 08:25:53 51°22.355 3°1.957 7.01053 3.499265 34.403994 3.19646
2004-02-02 08:25:59 51°22.373 3°1.983 7.01053 3.499265 34.403994 3.19646
2004-02-02 08:26:03 51°22.385 3°2.001 7.010383 3.502952 34.442604 3.23017
2004-02-02 08:26:08 51°22.401 3°2.022 7.011562 3.510959 34.529291 3.263879
2004-02-02 08:26:13 51°22.416 3°2.044 7.014313 3.512961 34.548633 2.994204
2004-02-02 08:26:19 51°22.434 3°2.071 7.019716 3.508009 34.492801 3.567264
2004-02-02 08:26:24 51°22.449 3°2.093 7.017752 3.514647 34.561971 3.095332
2004-02-02 08:26:29 51°22.464 3°2.117 7.020011 3.508852 34.496083 3.398717
2004-02-02 08:26:33 51°22.476 3°2.135 7.020011 3.508852 34.496083 3.398717
2004-02-02 08:26:39 51°22.492 3°2.164 7.023891 3.510538 34.51366 3.095332
2004-02-02 08:26:44 51°22.507 3°2.188 7.026102 3.514752 34.556333 3.263879
2004-02-02 08:26:48 51°22.519 3°2.206 7.027722 3.516438 34.573063 3.23017
2004-02-02 08:26:53 51°22.533 3°2.229 7.028361 3.514541 34.549788 3.297589
2004-02-02 08:26:59 51°22.553 3°2.256 7.028361 3.514541 34.549788 3.297589
2004-02-02 08:27:03 51°22.566 3°2.273 7.027329 3.51254 34.524519 3.499845
2004-02-02 08:27:09 51°22.583 3°2.302 7.026494 3.512329 34.521369 3.19646
2004-02-02 08:27:13 51°22.596 3°2.319 7.028705 3.515068 34.549607 3.432426
2004-02-02 08:27:19 51°22.615 3°2.345 7.031406 3.512856 34.522888 3.19646
2004-02-02 08:27:24 51°22.629 3°2.369 7.033223 3.508747 34.477151 3.331298
2004-02-02 08:27:29 51°22.644 3°2.391 7.032633 3.505164 34.437179 3.567264
2004-02-02 08:27:33 51°22.656 3°2.408 7.032633 3.505164 34.437179 3.567264
2004-02-02 08:27:38 51°22.671 3°2.43 7.028312 3.51707 34.56809 3.297589
2004-02-02 08:27:44 51°22.689 3°2.457 7.028557 3.513593 34.529251 3.297589
2004-02-02 08:27:48 51°22.701 3°2.475 7.028017 3.515911 34.552881 3.027913
2004-02-02 08:27:53 51°22.716 3°2.499 7.028508 3.517702 34.573301 3.365007
2004-02-02 08:27:59 51°22.734 3°2.525 7.027575 3.515911 34.551185 3.297589
2004-02-02 08:28:04 51°22.747 3°2.549 7.027575 3.515911 34.551185 3.297589
2004-02-02 08:28:08 51°22.76 3°2.566 7.028164 3.51412 34.530769 3.466136
2004-02-02 08:28:13 51°22.775 3°2.589 7.02949 3.510432 34.493026 3.398717
2004-02-02 08:28:19 51°22.793 3°2.615 7.024039 3.518334 34.580209 3.297589
2004-02-02 08:28:24 51°22.808 3°2.637 7.024432 3.518123 34.57536 3.432426
2004-02-02 08:28:29 51°22.823 3°2.659 7.020551 3.514225 34.53531 3.297589
2004-02-02 08:28:33 51°22.835 3°2.677 7.020551 3.514225 34.53531 3.297589
2004-02-02 08:28:37 51°22.847 3°2.695 7.02065 3.517913 34.577301 3.432426
2004-02-02 08:28:43 51°22.864 3°2.722 7.019078 3.518018 34.578452 3.263879
2004-02-02 08:28:48 51°22.879 3°2.745 7.022025 3.519177 34.592816 3.297589
2004-02-02 08:28:53 51°22.894 3°2.767 7.017506 3.512434 34.517436 3.297589
2004-02-02 08:28:59 51°22.913 3°2.792 7.016082 3.504532 34.436191 3.567264
2004-02-02 08:29:03 51°22.924 3°2.811 7.016082 3.504532 34.436191 3.567264
2004-02-02 08:29:09 51°22.942 3°2.839 7.020797 3.514015 34.538942 3.365007
2004-02-02 08:29:13 51°22.955 3°2.856 7.021976 3.518018 34.581847 3.499845
2004-02-02 08:29:19 51°22.973 3°2.885 7.015296 3.50959 34.492285 3.263879
2004-02-02 08:29:23 51°22.986 3°2.902 7.013674 3.509063 34.489069 3.600973
2004-02-02 08:29:28 51°23.001 3°2.925 7.013674 3.509063 34.489069 3.600973
2004-02-02 08:29:33 51°23.017 3°2.948 7.015148 3.515173 34.555848 3.567264
2004-02-02 08:29:39 51°23.036 3°2.975 7.01166 3.515595 34.559606 3.19646
2004-02-02 08:29:43 51°23.047 3°2.995 7.016082 3.508325 34.480165 3.19646
2004-02-02 08:29:49 51°23.066 3°3.022 7.010039 3.507482 34.470109 3.432426
2004-02-02 08:29:53 51°23.077 3°3.042 7.013429 3.517386 34.58173 3.23017
2004-02-02 08:29:59 51°23.095 3°3.07 7.013429 3.517386 34.58173 3.23017
2004-02-02 08:30:04 51°23.11 3°3.093 7.009695 3.517913 34.589187 3.23017
2004-02-02 08:30:08 51°23.123 3°3.11 7.0038 3.50369 34.433747 3.432426
2004-02-02 08:30:13 51°23.138 3°3.133 7.002375 3.515806 34.563606 3.365007
2004-02-02 08:30:19 51°23.157 3°3.159 6.997855 3.517913 34.589187 3.23017
2004-02-02 08:30:24 51°23.171 3°3.183 6.997019 3.512645 34.534149 3.466136
2004-02-02 08:30:28 51°23.184 3°3.199 6.997019 3.512645 34.534149 3.466136
2004-02-02 08:30:33 51°23.199 3°3.222 6.988666 3.501266 34.40812 3.331298
2004-02-02 08:30:39 51°23.217 3°3.248 6.987437 3.510433 34.512509 3.061623
2004-02-02 08:30:43 51°23.229 3°3.267 6.98208 3.513066 34.542996 3.432426
2004-02-02 08:30:49 51°23.247 3°3.294 6.980458 3.496526 34.365616 3.499845
2004-02-02 08:30:53 51°23.259 3°3.312 6.972446 3.503795 34.45097 3.19646
2004-02-02 08:30:59 51°23.276 3°3.34 6.972446 3.503795 34.45097 3.19646
2004-02-02 08:31:03 51°23.288 3°3.358 6.966056 3.506534 34.482607 3.129042
2004-02-02 08:31:08 51°23.303 3°3.38 6.952191 3.504849 34.469261 3.398717
2004-02-02 08:31:13 51°23.316 3°3.403 6.947225 3.514436 34.578352 3.162751
2004-02-02 08:31:19 51°23.334 3°3.431 6.939012 3.510749 34.543111 3.23017
2004-02-02 08:31:24 51°23.349 3°3.454 6.926715 3.506219 34.497798 3.129042
2004-02-02 08:31:28 51°23.362 3°3.472 6.920123 3.50959 34.540622 3.129042
2004-02-02 08:31:33 51°23.376 3°3.496 6.920123 3.50959 34.540622 3.129042
2004-02-02 08:31:39 51°23.395 3°3.524 6.916975 3.510328 34.556338 3.398717
2004-02-02 08:31:43 51°23.406 3°3.543 6.904477 3.492839 34.373459 3.19646
2004-02-02 08:31:48 51°23.421 3°3.567 6.893601 3.500319 34.462077 3.19646
2004-02-02 08:31:53 51°23.437 3°3.591 6.886415 3.502426 34.496173 3.23017
2004-02-02 08:31:59 51°23.454 3°3.619 6.875536 3.498739 34.460044 3.23017
2004-02-02 08:32:04 51°23.468 3°3.643 6.875536 3.498739 34.460044 3.23017
2004-02-02 08:32:09 51°23.484 3°3.667 6.879179 3.505166 34.538069 3.263879
2004-02-02 08:32:13 51°23.495 3°3.686 6.863178 3.503059 34.523489 3.398717
2004-02-02 08:32:19 51°23.513 3°3.714 6.85658 3.501794 34.51984 3.533554
2004-02-02 08:32:23 51°23.525 3°3.732 6.851261 3.498845 34.496014 3.331298
2004-02-02 08:32:29 51°23.542 3°3.76 6.841361 3.499582 34.508349 3.19646
2004-02-02 08:32:33 51°23.554 3°3.779 6.841361 3.499582 34.508349 3.19646
2004-02-02 08:32:39 51°23.572 3°3.806 6.837963 3.491997 34.431155 3.466136
2004-02-02 08:32:43 51°23.583 3°3.825 6.83417 3.498423 34.510106 3.365007
2004-02-02 08:32:48 51°23.599 3°3.847 6.83279 3.496316 34.495507 3.600973
2004-02-02 08:32:53 51°23.613 3°3.87 6.832642 3.494631 34.485527 3.432426
2004-02-02 08:32:59 51°23.632 3°3.897 6.826681 3.494947 34.499207 3.668392
2004-02-02 08:33:04 51°23.646 3°3.92 6.826681 3.494947 34.499207 3.668392
2004-02-02 08:33:09 51°23.661 3°3.943 6.830228 3.498424 34.540769 3.702101
2004-02-02 08:33:14 51°23.676 3°3.966 6.826041 3.494842 34.505716 3.567264
2004-02-02 08:33:19 51°23.691 3°3.99 6.827864 3.483358 34.382262 3.533554
2004-02-02 08:33:23 51°23.704 3°4.008 6.829194 3.481778 34.368321 3.904358
2004-02-02 08:33:29 51°23.722 3°4.035 6.829145 3.477353 34.323173 3.904358
2004-02-02 08:33:33 51°23.734 3°4.054 6.829145 3.477353 34.323173 3.904358
2004-02-02 08:33:39 51°23.753 3°4.079 6.832642 3.488099 34.436826 3.80323
2004-02-02 08:33:43 51°23.764 3°4.099 6.827469 3.475352 34.302911 3.297589
2004-02-02 08:33:49 51°23.784 3°4.124 6.829145 3.489469 34.455258 3.80323
2004-02-02 08:33:53 51°23.795 3°4.144 6.825351 3.475668 34.305531 3.904358
2004-02-02 08:33:59 51°23.813 3°4.17 6.825351 3.475668 34.305531 3.904358
2004-02-02 08:34:04 51°23.83 3°4.189 6.819635 3.475352 34.302064 3.80323
2004-02-02 08:34:09 51°23.846 3°4.211 6.81116 3.487678 34.437303 3.263879
2004-02-02 08:34:13 51°23.86 3°4.225 6.81249 3.474298 34.289663 3.567264
2004-02-02 08:34:19 51°23.88 3°4.249 6.803866 3.497686 34.548877 3.331298
2004-02-02 08:34:23 51°23.894 3°4.263 6.800169 3.496422 34.536701 3.432426
2004-02-02 08:34:28 51°23.911 3°4.281 6.800169 3.496422 34.536701 3.432426
2004-02-02 08:34:33 51°23.928 3°4.299 6.801155 3.473666 34.29035 4.005486
2004-02-02 08:34:39 51°23.949 3°4.32 6.793367 3.493683 34.516002 3.499845
2004-02-02 08:34:43 51°23.963 3°4.335 6.790311 3.495263 34.537624 3.567264
2004-02-02 08:34:49 51°23.984 3°4.356 6.788142 3.495369 34.543048 3.499845
2004-02-02 08:34:53 51°23.998 3°4.37 6.777443 3.494948 34.542687 3.567264
2004-02-02 08:34:59 51°24.019 3°4.39 6.770294 3.49263 34.519783 3.398717
2004-02-02 08:35:03 51°24.033 3°4.405 6.770294 3.49263 34.519783 3.398717
2004-02-02 08:35:09 51°24.054 3°4.426 6.764277 3.492735 34.5235 3.499845
2004-02-02 08:35:13 51°24.068 3°4.441 6.761466 3.493157 34.534105 3.533554
2004-02-02 08:35:19 51°24.088 3°4.463 6.751602 3.483148 34.427547 3.499845
2004-02-02 08:35:24 51°24.106 3°4.481 6.742673 3.491155 34.52235 3.567264
2004-02-02 08:35:29 51°24.123 3°4.5 6.74139 3.489891 34.514429 3.466136
2004-02-02 08:35:33 51°24.137 3°4.514 6.74139 3.489891 34.514429 3.466136
2004-02-02 08:35:39 51°24.158 3°4.536 6.729352 3.488732 34.507664 3.533554
2004-02-02 08:35:43 51°24.172 3°4.55 6.719334 3.487152 34.496265 3.19646
2004-02-02 08:35:49 51°24.192 3°4.574 6.726144 3.486098 34.486387 3.432426
2004-02-02 08:35:53 51°24.207 3°4.585 6.709315 3.485466 34.488825 3.398717
2004-02-02 08:35:59 51°24.226 3°4.61 6.710796 3.479988 34.436252 3.870648
2004-02-02 08:36:04 51°24.244 3°4.624 6.710796 3.479988 34.436252 3.870648
2004-02-02 08:36:09 51°24.261 3°4.644 6.703392 3.484413 34.492606 3.297589
2004-02-02 08:36:13 51°24.275 3°4.656 6.702454 3.477986 34.428729 3.668392
2004-02-02 08:36:19 51°24.295 3°4.681 6.699393 3.481885 34.476741 3.19646
2004-02-02 08:36:23 51°24.31 3°4.693 6.692778 3.473562 34.390276 3.263879
2004-02-02 08:36:28 51°24.327 3°4.714 6.692778 3.473562 34.390276 3.263879
2004-02-02 08:36:33 51°24.345 3°4.729 6.696382 3.475564 34.416565 3.499845
2004-02-02 08:36:39 51°24.364 3°4.753 6.691297 3.474721 34.414112 3.19646
2004-02-02 08:36:44 51°24.382 3°4.771 6.692086 3.479146 34.467091 3.23017
2004-02-02 08:36:48 51°24.395 3°4.785 6.681964 3.477249 34.445359 3.567264
2004-02-02 08:36:53 51°24.411 3°4.805 6.6751 3.476828 34.446696 3.263879
2004-02-02 08:36:59 51°24.432 3°4.825 6.667494 3.469453 34.364657 3.398717
2004-02-02 08:37:04 51°24.448 3°4.845 6.667494 3.469453 34.364657 3.398717
2004-02-02 08:37:08 51°24.46 3°4.86 6.664136 3.473141 34.409512 3.567264
2004-02-02 08:37:13 51°24.477 3°4.878 6.649563 3.468505 34.361036 3.297589
2004-02-02 08:37:19 51°24.498 3°4.899 6.638198 3.474932 34.435208 3.634683
2004-02-02 08:37:23 51°24.511 3°4.914 6.628809 3.473141 34.423168 3.365007
2004-02-02 08:37:29 51°24.531 3°4.936 6.625448 3.469664 34.389144 3.331298
2004-02-02 08:37:33 51°24.545 3°4.951 6.625448 3.469664 34.389144 3.331298
2004-02-02 08:37:39 51°24.565 3°4.973 6.62357 3.46998 34.401159 3.398717
2004-02-02 08:37:43 51°24.579 3°4.988 6.621099 3.469981 34.409698 3.398717
2004-02-02 08:37:49 51°24.599 3°5.01 6.619665 3.469243 34.409259 3.466136
2004-02-02 08:37:53 51°24.613 3°5.023 6.618924 3.468822 34.414868 3.499845
2004-02-02 08:37:59 51°24.633 3°5.046 6.618924 3.468822 34.414868 3.499845
2004-02-02 08:38:03 51°24.647 3°5.06 6.615513 3.468822 34.423418 3.80323
2004-02-02 08:38:08 51°24.665 3°5.079 6.613338 3.468295 34.421029 3.634683
2004-02-02 08:38:13 51°24.683 3°5.095 6.611707 3.462923 34.366904 3.938067
2004-02-02 08:38:19 51°24.702 3°5.119 6.611707 3.459657 34.332598 3.567264
2004-02-02 08:38:24 51°24.721 3°5.135 6.615662 3.458077 34.318586 3.702101
2004-02-02 08:38:29 51°24.738 3°5.153 6.614525 3.461448 34.35747 3.634683
2004-02-02 08:38:33 51°24.751 3°5.168 6.614525 3.461448 34.35747 3.634683
2004-02-02 08:38:39 51°24.771 3°5.191 6.616304 3.461658 34.362356 3.735811
2004-02-02 08:38:44 51°24.788 3°5.21 6.621741 3.466294 34.416912 3.702101
2004-02-02 08:38:49 51°24.804 3°5.229 6.621346 3.467137 34.427068 3.904358
2004-02-02 08:38:53 51°24.818 3°5.245 6.626239 3.463765 34.385597 3.870648
2004-02-02 08:38:59 51°24.839 3°5.266 6.629649 3.465872 34.409697 3.904358
2004-02-02 08:39:03 51°24.852 3°5.282 6.629649 3.465872 34.409697 3.904358
2004-02-02 08:39:08 51°24.869 3°5.301 6.630934 3.467769 34.428907 3.836939
2004-02-02 08:39:13 51°24.886 3°5.319 6.634344 3.465451 34.401627 3.870648
2004-02-02 08:39:19 51°24.906 3°5.341 6.633356 3.46819 34.430989 3.735811
2004-02-02 08:39:23 51°24.921 3°5.355 6.636518 3.462396 34.364511 4.241452
2004-02-02 08:39:29 51°24.942 3°5.376 6.636815 3.464608 34.388056 3.870648
2004-02-02 08:39:33 51°24.955 3°5.391 6.636815 3.464608 34.388056 3.870648
2004-02-02 08:39:39 51°24.976 3°5.411 6.638446 3.468085 34.422127 3.938067
2004-02-02 08:39:43 51°24.99 3°5.426 6.640076 3.467769 34.417785 3.634683
2004-02-02 08:39:49 51°25.011 3°5.447 6.642991 3.470824 34.449772 3.80323
2004-02-02 08:39:53 51°25.024 3°5.463 6.645561 3.470192 34.443656 3.80323
2004-02-02 08:39:59 51°25.044 3°5.484 6.645067 3.465978 34.392051 3.870648
2004-02-02 08:40:03 51°25.058 3°5.5 6.645067 3.465978 34.392051 3.870648
2004-02-02 08:40:08 51°25.076 3°5.515 6.64729 3.465872 34.393453 4.039195
2004-02-02 08:40:13 51°25.093 3°5.535 6.650551 3.459657 34.320658 3.533554
2004-02-02 08:40:19 51°25.114 3°5.556 6.655145 3.465872 34.387473 3.702101
2004-02-02 08:40:24 51°25.131 3°5.574 6.657368 3.471877 34.450265 3.634683
2004-02-02 08:40:28 51°25.145 3°5.588 6.657368 3.471877 34.450265 3.634683
2004-02-02 08:40:33 51°25.163 3°5.606 6.660678 3.469665 34.423305 3.76952
2004-02-02 08:40:39 51°25.184 3°5.626 6.664975 3.465029 34.372204 3.735811
2004-02-02 08:40:44 51°25.201 3°5.645 6.672038 3.470929 34.433823 3.600973
2004-02-02 08:40:48 51°25.216 3°5.658 6.676532 3.467768 34.393003 3.533554
2004-02-02 08:40:53 51°25.233 3°5.676 6.684581 3.463028 34.341612 3.263879
2004-02-02 08:40:59 51°25.253 3°5.698 6.689272 3.472404 34.442387 3.297589
2004-02-02 08:41:04 51°25.272 3°5.716 6.689272 3.472404 34.442387 3.297589
2004-02-02 08:41:09 51°25.29 3°5.731 6.698751 3.459656 34.296804 3.263879
2004-02-02 08:41:13 51°25.304 3°5.745 6.704725 3.472088 34.4295 3.027913
2004-02-02 08:41:19 51°25.325 3°5.766 6.71277 3.473457 34.440319 3.365007
2004-02-02 08:41:23 51°25.341 3°5.778 6.718594 3.466188 34.354264 2.825657
2004-02-02 08:41:29 51°25.362 3°5.798 6.718594 3.466188 34.354264 2.825657
2004-02-02 08:41:33 51°25.376 3°5.811 6.724861 3.467768 34.3657 2.994204
2004-02-02 08:41:39 51°25.398 3°5.832 6.731325 3.4743 34.430809 3.263879
2004-02-02 08:41:44 51°25.415 3°5.85 6.736062 3.473141 34.412071 2.825657
2004-02-02 08:41:49 51°25.433 3°5.868 6.740502 3.477881 34.457443 2.791947
2004-02-02 08:41:53 51°25.447 3°5.883 6.744005 3.476407 34.436934 2.6234
2004-02-02 08:41:59 51°25.468 3°5.904 6.746373 3.480094 34.468986 2.791947
2004-02-02 08:42:03 51°25.482 3°5.919 6.746373 3.480094 34.468986 2.791947
2004-02-02 08:42:09 51°25.503 3°5.941 6.74879 3.474405 34.397845 2.960494
2004-02-02 08:42:14 51°25.521 3°5.961 6.749481 3.476722 34.418231 2.724529
2004-02-02 08:42:19 51°25.535 3°5.984 6.753871 3.47451 34.388781 2.926785
2004-02-02 08:42:23 51°25.547 3°6.003 6.755696 3.481147 34.460089 2.758238
2004-02-02 08:42:29 51°25.565 3°6.033 6.751306 3.470506 34.339648 2.893076
2004-02-02 08:42:33 51°25.576 3°6.052 6.751306 3.470506 34.339648 2.893076
2004-02-02 08:42:39 51°25.591 3°6.083 6.752095 3.470612 34.337406 2.758238
2004-02-02 08:42:44 51°25.604 3°6.109 6.755005 3.48199 34.459974 2.724529
2004-02-02 08:42:49 51°25.617 3°6.137 6.751404 3.479672 34.431071 2.758238
2004-02-02 08:42:53 51°25.628 3°6.159 6.749826 3.476195 34.391139 2.589691
2004-02-02 08:42:59 51°25.644 3°6.192 6.749135 3.482095 34.452602 2.791947
2004-02-02 08:43:03 51°25.655 3°6.213 6.749135 3.482095 34.452602 2.791947
2004-02-02 08:43:09 51°25.669 3°6.244 6.749382 3.48062 34.436384 2.65711
2004-02-02 08:43:13 51°25.679 3°6.266 6.7517 3.481358 34.445345 2.791947
2004-02-02 08:43:19 51°25.694 3°6.298 6.751158 3.480725 34.440099 2.589691
2004-02-02 08:43:24 51°25.706 3°6.326 6.748987 3.479567 34.429913 2.859366
2004-02-02 08:43:28 51°25.717 3°6.348 6.749283 3.480936 34.444975 2.893076
2004-02-02 08:43:33 51°25.731 3°6.375 6.749283 3.480936 34.444975 2.893076
2004-02-02 08:43:39 51°25.746 3°6.406 6.74879 3.482622 34.46522 2.791947
2004-02-02 08:43:43 51°25.757 3°6.427 6.751158 3.466503 34.286295 2.926785
2004-02-02 08:43:48 51°25.769 3°6.453 6.752194 3.480831 34.443816 2.690819
2004-02-02 08:43:53 51°25.782 3°6.479 6.75249 3.481568 34.452779 2.960494
2004-02-02 08:43:59 51°25.797 3°6.511 6.751503 3.476406 34.396861 2.960494
2004-02-02 08:44:04 51°25.81 3°6.538 6.751503 3.476406 34.396861 2.960494
2004-02-02 08:44:09 51°25.823 3°6.564 6.751108 3.483254 34.473026 3.095332
2004-02-02 08:44:13 51°25.834 3°6.584 6.748149 3.482516 34.463208 3.027913
2004-02-02 08:44:19 51°25.848 3°6.615 6.749481 3.47767 34.409059 2.825657
2004-02-02 08:44:23 51°25.858 3°6.637 6.751947 3.474299 34.371141 2.960494
2004-02-02 08:44:29 51°25.873 3°6.67 6.745337 3.479356 34.426743 2.960494
2004-02-02 08:44:33 51°25.883 3°6.692 6.745337 3.479356 34.426743 2.960494
2004-02-02 08:44:39 51°25.897 3°6.724 6.749283 3.481884 34.456256 3.129042
2004-02-02 08:44:43 51°25.907 3°6.744 6.746472 3.482095 34.458573 3.263879
2004-02-02 08:44:49 51°25.922 3°6.776 6.744646 3.483149 34.471014 3.061623
2004-02-02 08:44:53 51°25.933 3°6.796 6.740206 3.480515 34.441193 3.061623
2004-02-02 08:44:59 51°25.947 3°6.829 6.742624 3.482411 34.463756 3.735811
2004-02-02 08:45:04 51°25.961 3°6.855 6.742624 3.482411 34.463756 3.735811
2004-02-02 08:45:08 51°25.972 3°6.877 6.742624 3.48199 34.459974 3.19646
2004-02-02 08:45:13 51°25.984 3°6.905 6.740502 3.480515 34.444604 3.23017
2004-02-02 08:45:19 51°25.998 3°6.938 6.74583 3.477144 34.408378 3.331298
2004-02-02 08:45:23 51°26.005 3°6.961 6.74805 3.478935 34.428928 3.432426
2004-02-02 08:45:28 51°26.016 3°6.989 6.740946 3.484413 34.490898 3.129042
2004-02-02 08:45:33 51°26.026 3°7.017 6.740946 3.484413 34.490898 3.129042
2004-02-02 08:45:39 51°26.039 3°7.052 6.74213 3.483359 34.480161 3.668392
2004-02-02 08:45:44 51°26.051 3°7.08 6.742624 3.48357 34.480771 3.398717
2004-02-02 08:45:48 51°26.06 3°7.103 6.737789 3.483465 34.477905 3.398717
2004-02-02 08:45:53 51°26.071 3°7.13 6.739466 3.483886 34.482541 3.365007
2004-02-02 08:45:59 51°26.084 3°7.163 6.737789 3.483043 34.474123 3.297589
2004-02-02 08:46:03 51°26.092 3°7.186 6.737789 3.483043 34.474123 3.297589
2004-02-02 08:46:09 51°26.105 3°7.22 6.739466 3.483675 34.482784 3.567264
2004-02-02 08:46:13 51°26.114 3°7.242 6.736654 3.482517 34.47345 3.600973
2004-02-02 08:46:19 51°26.128 3°7.276 6.738332 3.482306 34.468571 3.634683
2004-02-02 08:46:23 51°26.137 3°7.299 6.736703 3.474194 34.381898 3.567264
2004-02-02 08:46:28 51°26.149 3°7.327 6.73473 3.481674 34.464177 3.668392
2004-02-02 08:46:33 51°26.16 3°7.355 6.73473 3.481674 34.464177 3.668392
2004-02-02 08:46:39 51°26.173 3°7.387 6.739318 3.48357 34.479918 3.76952
2004-02-02 08:46:44 51°26.183 3°7.416 6.740848 3.480936 34.456917 3.499845
2004-02-02 08:46:48 51°26.191 3°7.439 6.739713 3.477986 34.424466 3.735811